<?xml version="1.0" encoding="UTF-8" standalone="no" ?>
<gpx xmlns="http://www.topografix.com/GPX/1/1" xmlns:xsi="http://www.w3.org/2001/XMLSchema-instance" xsi:schemaLocation="http://www.topografix.com/GPX/1/1 http://www.topografix.com/GPX/1/1/gpx.xsd" version="1.1" creator="VisuGPX - https://www.visugpx.com">
  <metadata>
    <name>villette</name>
    <desc><![CDATA[Reprise de la rando après la froidure de ces derniers jours]]></desc>
  </metadata>
  <trk>
    <name><![CDATA[villette]]></name>
    <trkseg>
      <trkpt lat="47.0751" lon="5.49048">
        <ele>190.958984</ele>
        <time>2012-02-16T13:33:50Z</time>
      </trkpt>
      <trkpt lat="47.07509" lon="5.49047">
        <ele>189.997681</ele>
        <time>2012-02-16T13:33:57Z</time>
      </trkpt>
      <trkpt lat="47.07506" lon="5.49045">
        <ele>186.633179</ele>
        <time>2012-02-16T13:34:02Z</time>
      </trkpt>
      <trkpt lat="47.07504" lon="5.49044">
        <ele>189.516968</ele>
        <time>2012-02-16T13:34:04Z</time>
      </trkpt>
      <trkpt lat="47.07502" lon="5.49041">
        <ele>189.997681</ele>
        <time>2012-02-16T13:34:27Z</time>
      </trkpt>
      <trkpt lat="47.07499" lon="5.49036">
        <ele>189.516968</ele>
        <time>2012-02-16T13:35:34Z</time>
      </trkpt>
      <trkpt lat="47.07497" lon="5.4903">
        <ele>189.516968</ele>
        <time>2012-02-16T13:35:54Z</time>
      </trkpt>
      <trkpt lat="47.07492" lon="5.49021">
        <ele>189.516968</ele>
        <time>2012-02-16T13:36:03Z</time>
      </trkpt>
      <trkpt lat="47.07476" lon="5.48996">
        <ele>189.997681</ele>
        <time>2012-02-16T13:36:26Z</time>
      </trkpt>
      <trkpt lat="47.07457" lon="5.48968">
        <ele>189.036377</ele>
        <time>2012-02-16T13:36:48Z</time>
      </trkpt>
      <trkpt lat="47.07457" lon="5.48965">
        <ele>189.516968</ele>
        <time>2012-02-16T13:36:50Z</time>
      </trkpt>
      <trkpt lat="47.07449" lon="5.4894">
        <ele>189.036377</ele>
        <time>2012-02-16T13:37:07Z</time>
      </trkpt>
      <trkpt lat="47.07433" lon="5.48917">
        <ele>189.036377</ele>
        <time>2012-02-16T13:37:24Z</time>
      </trkpt>
      <trkpt lat="47.07422" lon="5.48885">
        <ele>189.997681</ele>
        <time>2012-02-16T13:37:43Z</time>
      </trkpt>
      <trkpt lat="47.07417" lon="5.48873">
        <ele>189.516968</ele>
        <time>2012-02-16T13:37:51Z</time>
      </trkpt>
      <trkpt lat="47.07412" lon="5.48862">
        <ele>189.997681</ele>
        <time>2012-02-16T13:37:58Z</time>
      </trkpt>
      <trkpt lat="47.07408" lon="5.48852">
        <ele>189.036377</ele>
        <time>2012-02-16T13:38:04Z</time>
      </trkpt>
      <trkpt lat="47.07392" lon="5.48814">
        <ele>189.997681</ele>
        <time>2012-02-16T13:38:27Z</time>
      </trkpt>
      <trkpt lat="47.07372" lon="5.48772">
        <ele>189.516968</ele>
        <time>2012-02-16T13:38:52Z</time>
      </trkpt>
      <trkpt lat="47.0737" lon="5.48764">
        <ele>189.997681</ele>
        <time>2012-02-16T13:38:57Z</time>
      </trkpt>
      <trkpt lat="47.07353" lon="5.48735">
        <ele>189.997681</ele>
        <time>2012-02-16T13:39:19Z</time>
      </trkpt>
      <trkpt lat="47.07349" lon="5.48726">
        <ele>190.478394</ele>
        <time>2012-02-16T13:39:24Z</time>
      </trkpt>
      <trkpt lat="47.07347" lon="5.48726">
        <ele>190.478394</ele>
        <time>2012-02-16T13:39:26Z</time>
      </trkpt>
      <trkpt lat="47.0734" lon="5.48713">
        <ele>190.478394</ele>
        <time>2012-02-16T13:39:35Z</time>
      </trkpt>
      <trkpt lat="47.07323" lon="5.48687">
        <ele>190.478394</ele>
        <time>2012-02-16T13:39:54Z</time>
      </trkpt>
      <trkpt lat="47.07319" lon="5.48678">
        <ele>190.958984</ele>
        <time>2012-02-16T13:40:00Z</time>
      </trkpt>
      <trkpt lat="47.07313" lon="5.48634">
        <ele>189.997681</ele>
        <time>2012-02-16T13:40:24Z</time>
      </trkpt>
      <trkpt lat="47.07313" lon="5.4863">
        <ele>189.516968</ele>
        <time>2012-02-16T13:40:26Z</time>
      </trkpt>
      <trkpt lat="47.07305" lon="5.48591">
        <ele>189.036377</ele>
        <time>2012-02-16T13:40:43Z</time>
      </trkpt>
      <trkpt lat="47.07286" lon="5.48545">
        <ele>189.036377</ele>
        <time>2012-02-16T13:41:09Z</time>
      </trkpt>
      <trkpt lat="47.07284" lon="5.48543">
        <ele>188.555786</ele>
        <time>2012-02-16T13:41:11Z</time>
      </trkpt>
      <trkpt lat="47.0728" lon="5.4854">
        <ele>189.036377</ele>
        <time>2012-02-16T13:41:15Z</time>
      </trkpt>
      <trkpt lat="47.0727" lon="5.48528">
        <ele>189.997681</ele>
        <time>2012-02-16T13:41:24Z</time>
      </trkpt>
      <trkpt lat="47.07256" lon="5.48517">
        <ele>191.439575</ele>
        <time>2012-02-16T13:41:39Z</time>
      </trkpt>
      <trkpt lat="47.07226" lon="5.48499">
        <ele>193.843018</ele>
        <time>2012-02-16T13:42:04Z</time>
      </trkpt>
      <trkpt lat="47.07217" lon="5.48477">
        <ele>195.284912</ele>
        <time>2012-02-16T13:42:24Z</time>
      </trkpt>
      <trkpt lat="47.07203" lon="5.48471">
        <ele>195.284912</ele>
        <time>2012-02-16T13:42:38Z</time>
      </trkpt>
      <trkpt lat="47.07183" lon="5.48476">
        <ele>195.765625</ele>
        <time>2012-02-16T13:43:02Z</time>
      </trkpt>
      <trkpt lat="47.07162" lon="5.48485">
        <ele>195.284912</ele>
        <time>2012-02-16T13:43:10Z</time>
      </trkpt>
      <trkpt lat="47.07139" lon="5.48486">
        <ele>195.284912</ele>
        <time>2012-02-16T13:43:25Z</time>
      </trkpt>
      <trkpt lat="47.07137" lon="5.48485">
        <ele>195.765625</ele>
        <time>2012-02-16T13:43:27Z</time>
      </trkpt>
      <trkpt lat="47.07117" lon="5.48469">
        <ele>195.765625</ele>
        <time>2012-02-16T13:43:42Z</time>
      </trkpt>
      <trkpt lat="47.07092" lon="5.48436">
        <ele>195.284912</ele>
        <time>2012-02-16T13:44:05Z</time>
      </trkpt>
      <trkpt lat="47.0707" lon="5.48404">
        <ele>194.804321</ele>
        <time>2012-02-16T13:44:28Z</time>
      </trkpt>
      <trkpt lat="47.07062" lon="5.48406">
        <ele>194.804321</ele>
        <time>2012-02-16T13:44:35Z</time>
      </trkpt>
      <trkpt lat="47.0706" lon="5.48409">
        <ele>194.804321</ele>
        <time>2012-02-16T13:44:37Z</time>
      </trkpt>
      <trkpt lat="47.07056" lon="5.48421">
        <ele>194.804321</ele>
        <time>2012-02-16T13:44:44Z</time>
      </trkpt>
      <trkpt lat="47.07051" lon="5.48435">
        <ele>195.284912</ele>
        <time>2012-02-16T13:44:51Z</time>
      </trkpt>
      <trkpt lat="47.07048" lon="5.48442">
        <ele>195.765625</ele>
        <time>2012-02-16T13:44:55Z</time>
      </trkpt>
      <trkpt lat="47.07049" lon="5.48446">
        <ele>195.765625</ele>
        <time>2012-02-16T13:44:58Z</time>
      </trkpt>
      <trkpt lat="47.07038" lon="5.48447">
        <ele>195.765625</ele>
        <time>2012-02-16T13:45:02Z</time>
      </trkpt>
      <trkpt lat="47.0703" lon="5.48447">
        <ele>194.804321</ele>
        <time>2012-02-16T13:45:07Z</time>
      </trkpt>
      <trkpt lat="47.0702" lon="5.48439">
        <ele>195.765625</ele>
        <time>2012-02-16T13:45:15Z</time>
      </trkpt>
      <trkpt lat="47.07008" lon="5.48418">
        <ele>194.32373</ele>
        <time>2012-02-16T13:45:32Z</time>
      </trkpt>
      <trkpt lat="47.06997" lon="5.48397">
        <ele>194.32373</ele>
        <time>2012-02-16T13:45:45Z</time>
      </trkpt>
      <trkpt lat="47.06983" lon="5.48369">
        <ele>193.362305</ele>
        <time>2012-02-16T13:46:03Z</time>
      </trkpt>
      <trkpt lat="47.06965" lon="5.48341">
        <ele>193.843018</ele>
        <time>2012-02-16T13:46:24Z</time>
      </trkpt>
      <trkpt lat="47.06955" lon="5.48314">
        <ele>194.32373</ele>
        <time>2012-02-16T13:46:40Z</time>
      </trkpt>
      <trkpt lat="47.06951" lon="5.4831">
        <ele>194.32373</ele>
        <time>2012-02-16T13:46:43Z</time>
      </trkpt>
      <trkpt lat="47.06934" lon="5.48276">
        <ele>196.246338</ele>
        <time>2012-02-16T13:47:04Z</time>
      </trkpt>
      <trkpt lat="47.06924" lon="5.48258">
        <ele>196.726929</ele>
        <time>2012-02-16T13:47:16Z</time>
      </trkpt>
      <trkpt lat="47.06904" lon="5.48246">
        <ele>197.20752</ele>
        <time>2012-02-16T13:47:31Z</time>
      </trkpt>
      <trkpt lat="47.06886" lon="5.48249">
        <ele>197.20752</ele>
        <time>2012-02-16T13:47:44Z</time>
      </trkpt>
      <trkpt lat="47.06868" lon="5.48256">
        <ele>197.688232</ele>
        <time>2012-02-16T13:47:58Z</time>
      </trkpt>
      <trkpt lat="47.06856" lon="5.48263">
        <ele>197.688232</ele>
        <time>2012-02-16T13:48:08Z</time>
      </trkpt>
      <trkpt lat="47.06847" lon="5.48264">
        <ele>197.688232</ele>
        <time>2012-02-16T13:48:18Z</time>
      </trkpt>
      <trkpt lat="47.06846" lon="5.48248">
        <ele>198.168945</ele>
        <time>2012-02-16T13:48:26Z</time>
      </trkpt>
      <trkpt lat="47.06844" lon="5.48215">
        <ele>198.168945</ele>
        <time>2012-02-16T13:48:41Z</time>
      </trkpt>
      <trkpt lat="47.06843" lon="5.48199">
        <ele>198.168945</ele>
        <time>2012-02-16T13:48:48Z</time>
      </trkpt>
      <trkpt lat="47.06843" lon="5.48186">
        <ele>197.688232</ele>
        <time>2012-02-16T13:48:54Z</time>
      </trkpt>
      <trkpt lat="47.06843" lon="5.4816">
        <ele>197.688232</ele>
        <time>2012-02-16T13:49:08Z</time>
      </trkpt>
      <trkpt lat="47.06845" lon="5.48154">
        <ele>198.168945</ele>
        <time>2012-02-16T13:49:12Z</time>
      </trkpt>
      <trkpt lat="47.06841" lon="5.48135">
        <ele>196.246338</ele>
        <time>2012-02-16T13:49:21Z</time>
      </trkpt>
      <trkpt lat="47.06838" lon="5.48128">
        <ele>198.649536</ele>
        <time>2012-02-16T13:49:24Z</time>
      </trkpt>
      <trkpt lat="47.06825" lon="5.48095">
        <ele>195.284912</ele>
        <time>2012-02-16T13:49:41Z</time>
      </trkpt>
      <trkpt lat="47.06818" lon="5.48082">
        <ele>195.765625</ele>
        <time>2012-02-16T13:49:49Z</time>
      </trkpt>
      <trkpt lat="47.0681" lon="5.48059">
        <ele>194.804321</ele>
        <time>2012-02-16T13:50:01Z</time>
      </trkpt>
      <trkpt lat="47.06801" lon="5.48046">
        <ele>193.843018</ele>
        <time>2012-02-16T13:50:11Z</time>
      </trkpt>
      <trkpt lat="47.06796" lon="5.48042">
        <ele>193.362305</ele>
        <time>2012-02-16T13:50:16Z</time>
      </trkpt>
      <trkpt lat="47.06788" lon="5.48035">
        <ele>192.881714</ele>
        <time>2012-02-16T13:50:24Z</time>
      </trkpt>
      <trkpt lat="47.06766" lon="5.48026">
        <ele>191.439575</ele>
        <time>2012-02-16T13:50:41Z</time>
      </trkpt>
      <trkpt lat="47.06765" lon="5.48026">
        <ele>191.439575</ele>
        <time>2012-02-16T13:50:42Z</time>
      </trkpt>
      <trkpt lat="47.06741" lon="5.4802">
        <ele>191.920288</ele>
        <time>2012-02-16T13:50:59Z</time>
      </trkpt>
      <trkpt lat="47.06719" lon="5.48013">
        <ele>190.958984</ele>
        <time>2012-02-16T13:51:16Z</time>
      </trkpt>
      <trkpt lat="47.06696" lon="5.48004">
        <ele>191.439575</ele>
        <time>2012-02-16T13:51:32Z</time>
      </trkpt>
      <trkpt lat="47.06693" lon="5.48003">
        <ele>190.958984</ele>
        <time>2012-02-16T13:51:34Z</time>
      </trkpt>
      <trkpt lat="47.06666" lon="5.48001">
        <ele>190.958984</ele>
        <time>2012-02-16T13:51:54Z</time>
      </trkpt>
      <trkpt lat="47.06647" lon="5.48001">
        <ele>191.439575</ele>
        <time>2012-02-16T13:52:08Z</time>
      </trkpt>
      <trkpt lat="47.06631" lon="5.48">
        <ele>192.401123</ele>
        <time>2012-02-16T13:52:20Z</time>
      </trkpt>
      <trkpt lat="47.06626" lon="5.48002">
        <ele>191.439575</ele>
        <time>2012-02-16T13:52:23Z</time>
      </trkpt>
      <trkpt lat="47.06618" lon="5.48005">
        <ele>190.958984</ele>
        <time>2012-02-16T13:52:30Z</time>
      </trkpt>
      <trkpt lat="47.06599" lon="5.48014">
        <ele>191.439575</ele>
        <time>2012-02-16T13:52:44Z</time>
      </trkpt>
      <trkpt lat="47.06582" lon="5.48018">
        <ele>192.401123</ele>
        <time>2012-02-16T13:52:56Z</time>
      </trkpt>
      <trkpt lat="47.0656" lon="5.48019">
        <ele>191.920288</ele>
        <time>2012-02-16T13:53:11Z</time>
      </trkpt>
      <trkpt lat="47.06558" lon="5.48019">
        <ele>191.439575</ele>
        <time>2012-02-16T13:53:13Z</time>
      </trkpt>
      <trkpt lat="47.06543" lon="5.48015">
        <ele>191.439575</ele>
        <time>2012-02-16T13:53:28Z</time>
      </trkpt>
      <trkpt lat="47.06526" lon="5.48019">
        <ele>189.997681</ele>
        <time>2012-02-16T13:53:46Z</time>
      </trkpt>
      <trkpt lat="47.06519" lon="5.4802">
        <ele>191.439575</ele>
        <time>2012-02-16T13:53:52Z</time>
      </trkpt>
      <trkpt lat="47.06498" lon="5.48016">
        <ele>191.439575</ele>
        <time>2012-02-16T13:54:10Z</time>
      </trkpt>
      <trkpt lat="47.06476" lon="5.4802">
        <ele>190.958984</ele>
        <time>2012-02-16T13:54:25Z</time>
      </trkpt>
      <trkpt lat="47.06457" lon="5.48023">
        <ele>191.439575</ele>
        <time>2012-02-16T13:54:40Z</time>
      </trkpt>
      <trkpt lat="47.06441" lon="5.4803">
        <ele>191.920288</ele>
        <time>2012-02-16T13:54:50Z</time>
      </trkpt>
      <trkpt lat="47.06422" lon="5.48043">
        <ele>191.920288</ele>
        <time>2012-02-16T13:55:05Z</time>
      </trkpt>
      <trkpt lat="47.06412" lon="5.48048">
        <ele>192.401123</ele>
        <time>2012-02-16T13:55:12Z</time>
      </trkpt>
      <trkpt lat="47.06402" lon="5.48052">
        <ele>191.920288</ele>
        <time>2012-02-16T13:55:20Z</time>
      </trkpt>
      <trkpt lat="47.0639" lon="5.48057">
        <ele>191.920288</ele>
        <time>2012-02-16T13:55:30Z</time>
      </trkpt>
      <trkpt lat="47.06369" lon="5.48072">
        <ele>191.920288</ele>
        <time>2012-02-16T13:55:47Z</time>
      </trkpt>
      <trkpt lat="47.06356" lon="5.48084">
        <ele>192.401123</ele>
        <time>2012-02-16T13:55:58Z</time>
      </trkpt>
      <trkpt lat="47.06345" lon="5.48102">
        <ele>191.920288</ele>
        <time>2012-02-16T13:56:11Z</time>
      </trkpt>
      <trkpt lat="47.06335" lon="5.48121">
        <ele>191.920288</ele>
        <time>2012-02-16T13:56:23Z</time>
      </trkpt>
      <trkpt lat="47.06322" lon="5.48137">
        <ele>192.401123</ele>
        <time>2012-02-16T13:56:34Z</time>
      </trkpt>
      <trkpt lat="47.0632" lon="5.48144">
        <ele>192.401123</ele>
        <time>2012-02-16T13:56:37Z</time>
      </trkpt>
      <trkpt lat="47.06297" lon="5.48164">
        <ele>192.401123</ele>
        <time>2012-02-16T13:56:54Z</time>
      </trkpt>
      <trkpt lat="47.06285" lon="5.48193">
        <ele>194.32373</ele>
        <time>2012-02-16T13:57:10Z</time>
      </trkpt>
      <trkpt lat="47.06279" lon="5.48203">
        <ele>194.804321</ele>
        <time>2012-02-16T13:57:18Z</time>
      </trkpt>
      <trkpt lat="47.06252" lon="5.48203">
        <ele>195.284912</ele>
        <time>2012-02-16T13:57:35Z</time>
      </trkpt>
      <trkpt lat="47.06239" lon="5.48205">
        <ele>195.284912</ele>
        <time>2012-02-16T13:57:47Z</time>
      </trkpt>
      <trkpt lat="47.06221" lon="5.48215">
        <ele>195.765625</ele>
        <time>2012-02-16T13:58:02Z</time>
      </trkpt>
      <trkpt lat="47.06197" lon="5.48227">
        <ele>194.804321</ele>
        <time>2012-02-16T13:58:18Z</time>
      </trkpt>
      <trkpt lat="47.06194" lon="5.48228">
        <ele>194.804321</ele>
        <time>2012-02-16T13:58:20Z</time>
      </trkpt>
      <trkpt lat="47.06173" lon="5.48234">
        <ele>195.765625</ele>
        <time>2012-02-16T13:58:38Z</time>
      </trkpt>
      <trkpt lat="47.0617" lon="5.48236">
        <ele>195.765625</ele>
        <time>2012-02-16T13:58:41Z</time>
      </trkpt>
      <trkpt lat="47.06164" lon="5.48239">
        <ele>195.765625</ele>
        <time>2012-02-16T13:58:46Z</time>
      </trkpt>
      <trkpt lat="47.06145" lon="5.48249">
        <ele>195.765625</ele>
        <time>2012-02-16T13:59:02Z</time>
      </trkpt>
      <trkpt lat="47.06129" lon="5.48261">
        <ele>195.284912</ele>
        <time>2012-02-16T13:59:15Z</time>
      </trkpt>
      <trkpt lat="47.06126" lon="5.48263">
        <ele>195.284912</ele>
        <time>2012-02-16T13:59:18Z</time>
      </trkpt>
      <trkpt lat="47.06103" lon="5.48275">
        <ele>194.32373</ele>
        <time>2012-02-16T13:59:35Z</time>
      </trkpt>
      <trkpt lat="47.06091" lon="5.4828">
        <ele>194.804321</ele>
        <time>2012-02-16T13:59:44Z</time>
      </trkpt>
      <trkpt lat="47.06066" lon="5.48287">
        <ele>194.804321</ele>
        <time>2012-02-16T14:00:01Z</time>
      </trkpt>
      <trkpt lat="47.06042" lon="5.48291">
        <ele>194.804321</ele>
        <time>2012-02-16T14:00:19Z</time>
      </trkpt>
      <trkpt lat="47.06025" lon="5.48294">
        <ele>194.32373</ele>
        <time>2012-02-16T14:00:33Z</time>
      </trkpt>
      <trkpt lat="47.06004" lon="5.48297">
        <ele>194.804321</ele>
        <time>2012-02-16T14:00:50Z</time>
      </trkpt>
      <trkpt lat="47.05973" lon="5.48301">
        <ele>195.765625</ele>
        <time>2012-02-16T14:01:13Z</time>
      </trkpt>
      <trkpt lat="47.0597" lon="5.483">
        <ele>195.765625</ele>
        <time>2012-02-16T14:01:16Z</time>
      </trkpt>
      <trkpt lat="47.05946" lon="5.48304">
        <ele>195.284912</ele>
        <time>2012-02-16T14:01:34Z</time>
      </trkpt>
      <trkpt lat="47.05924" lon="5.48311">
        <ele>195.284912</ele>
        <time>2012-02-16T14:01:52Z</time>
      </trkpt>
      <trkpt lat="47.05897" lon="5.4833">
        <ele>195.284912</ele>
        <time>2012-02-16T14:02:14Z</time>
      </trkpt>
      <trkpt lat="47.05868" lon="5.48348">
        <ele>195.765625</ele>
        <time>2012-02-16T14:02:39Z</time>
      </trkpt>
      <trkpt lat="47.05836" lon="5.48365">
        <ele>195.765625</ele>
        <time>2012-02-16T14:03:04Z</time>
      </trkpt>
      <trkpt lat="47.05808" lon="5.48382">
        <ele>196.246338</ele>
        <time>2012-02-16T14:03:27Z</time>
      </trkpt>
      <trkpt lat="47.05787" lon="5.48396">
        <ele>196.246338</ele>
        <time>2012-02-16T14:03:45Z</time>
      </trkpt>
      <trkpt lat="47.05773" lon="5.48401">
        <ele>196.246338</ele>
        <time>2012-02-16T14:03:56Z</time>
      </trkpt>
      <trkpt lat="47.0575" lon="5.48406">
        <ele>195.765625</ele>
        <time>2012-02-16T14:04:12Z</time>
      </trkpt>
      <trkpt lat="47.05731" lon="5.48418">
        <ele>195.284912</ele>
        <time>2012-02-16T14:04:29Z</time>
      </trkpt>
      <trkpt lat="47.05716" lon="5.48429">
        <ele>195.284912</ele>
        <time>2012-02-16T14:04:42Z</time>
      </trkpt>
      <trkpt lat="47.057" lon="5.48437">
        <ele>195.765625</ele>
        <time>2012-02-16T14:04:57Z</time>
      </trkpt>
      <trkpt lat="47.05683" lon="5.48448">
        <ele>195.765625</ele>
        <time>2012-02-16T14:05:11Z</time>
      </trkpt>
      <trkpt lat="47.05666" lon="5.48457">
        <ele>195.284912</ele>
        <time>2012-02-16T14:05:26Z</time>
      </trkpt>
      <trkpt lat="47.05647" lon="5.4847">
        <ele>195.765625</ele>
        <time>2012-02-16T14:05:41Z</time>
      </trkpt>
      <trkpt lat="47.05631" lon="5.48477">
        <ele>195.765625</ele>
        <time>2012-02-16T14:05:52Z</time>
      </trkpt>
      <trkpt lat="47.05622" lon="5.48484">
        <ele>195.765625</ele>
        <time>2012-02-16T14:05:59Z</time>
      </trkpt>
      <trkpt lat="47.05599" lon="5.48495">
        <ele>195.765625</ele>
        <time>2012-02-16T14:06:16Z</time>
      </trkpt>
      <trkpt lat="47.05578" lon="5.48506">
        <ele>195.765625</ele>
        <time>2012-02-16T14:06:30Z</time>
      </trkpt>
      <trkpt lat="47.05559" lon="5.48516">
        <ele>196.246338</ele>
        <time>2012-02-16T14:06:45Z</time>
      </trkpt>
      <trkpt lat="47.0554" lon="5.4853">
        <ele>195.765625</ele>
        <time>2012-02-16T14:07:02Z</time>
      </trkpt>
      <trkpt lat="47.05513" lon="5.48547">
        <ele>196.726929</ele>
        <time>2012-02-16T14:07:25Z</time>
      </trkpt>
      <trkpt lat="47.05491" lon="5.48564">
        <ele>196.726929</ele>
        <time>2012-02-16T14:07:44Z</time>
      </trkpt>
      <trkpt lat="47.05466" lon="5.48585">
        <ele>197.20752</ele>
        <time>2012-02-16T14:08:06Z</time>
      </trkpt>
      <trkpt lat="47.05455" lon="5.48591">
        <ele>197.688232</ele>
        <time>2012-02-16T14:08:21Z</time>
      </trkpt>
      <trkpt lat="47.05432" lon="5.48606">
        <ele>198.649536</ele>
        <time>2012-02-16T14:08:41Z</time>
      </trkpt>
      <trkpt lat="47.05407" lon="5.48624">
        <ele>199.61084</ele>
        <time>2012-02-16T14:09:01Z</time>
      </trkpt>
      <trkpt lat="47.05391" lon="5.48632">
        <ele>199.61084</ele>
        <time>2012-02-16T14:09:14Z</time>
      </trkpt>
      <trkpt lat="47.05381" lon="5.48634">
        <ele>200.091675</ele>
        <time>2012-02-16T14:09:32Z</time>
      </trkpt>
      <trkpt lat="47.05369" lon="5.48643">
        <ele>201.533569</ele>
        <time>2012-02-16T14:13:17Z</time>
      </trkpt>
      <trkpt lat="47.0535" lon="5.48657">
        <ele>202.014282</ele>
        <time>2012-02-16T14:13:34Z</time>
      </trkpt>
      <trkpt lat="47.05319" lon="5.48675">
        <ele>201.533569</ele>
        <time>2012-02-16T14:13:59Z</time>
      </trkpt>
      <trkpt lat="47.05283" lon="5.48694">
        <ele>201.052856</ele>
        <time>2012-02-16T14:14:29Z</time>
      </trkpt>
      <trkpt lat="47.05253" lon="5.48707">
        <ele>200.572266</ele>
        <time>2012-02-16T14:14:53Z</time>
      </trkpt>
      <trkpt lat="47.05219" lon="5.48723">
        <ele>200.091675</ele>
        <time>2012-02-16T14:15:19Z</time>
      </trkpt>
      <trkpt lat="47.05203" lon="5.4873">
        <ele>199.130127</ele>
        <time>2012-02-16T14:15:33Z</time>
      </trkpt>
      <trkpt lat="47.05176" lon="5.48744">
        <ele>200.091675</ele>
        <time>2012-02-16T14:15:56Z</time>
      </trkpt>
      <trkpt lat="47.05145" lon="5.48755">
        <ele>199.130127</ele>
        <time>2012-02-16T14:16:19Z</time>
      </trkpt>
      <trkpt lat="47.05122" lon="5.48757">
        <ele>197.688232</ele>
        <time>2012-02-16T14:16:36Z</time>
      </trkpt>
      <trkpt lat="47.05094" lon="5.4876">
        <ele>197.20752</ele>
        <time>2012-02-16T14:16:56Z</time>
      </trkpt>
      <trkpt lat="47.05059" lon="5.48755">
        <ele>196.726929</ele>
        <time>2012-02-16T14:17:20Z</time>
      </trkpt>
      <trkpt lat="47.05054" lon="5.48756">
        <ele>197.20752</ele>
        <time>2012-02-16T14:17:24Z</time>
      </trkpt>
      <trkpt lat="47.0505" lon="5.48756">
        <ele>196.246338</ele>
        <time>2012-02-16T14:17:28Z</time>
      </trkpt>
      <trkpt lat="47.05047" lon="5.48756">
        <ele>196.246338</ele>
        <time>2012-02-16T14:17:30Z</time>
      </trkpt>
      <trkpt lat="47.0501" lon="5.48754">
        <ele>196.246338</ele>
        <time>2012-02-16T14:17:57Z</time>
      </trkpt>
      <trkpt lat="47.05001" lon="5.48753">
        <ele>197.20752</ele>
        <time>2012-02-16T14:18:04Z</time>
      </trkpt>
      <trkpt lat="47.04974" lon="5.48755">
        <ele>196.726929</ele>
        <time>2012-02-16T14:18:25Z</time>
      </trkpt>
      <trkpt lat="47.04951" lon="5.48755">
        <ele>196.726929</ele>
        <time>2012-02-16T14:18:42Z</time>
      </trkpt>
      <trkpt lat="47.04931" lon="5.48766">
        <ele>197.20752</ele>
        <time>2012-02-16T14:18:57Z</time>
      </trkpt>
      <trkpt lat="47.04913" lon="5.48782">
        <ele>196.726929</ele>
        <time>2012-02-16T14:19:10Z</time>
      </trkpt>
      <trkpt lat="47.04888" lon="5.48801">
        <ele>197.688232</ele>
        <time>2012-02-16T14:19:31Z</time>
      </trkpt>
      <trkpt lat="47.04862" lon="5.4882">
        <ele>196.726929</ele>
        <time>2012-02-16T14:19:54Z</time>
      </trkpt>
      <trkpt lat="47.04832" lon="5.48843">
        <ele>196.726929</ele>
        <time>2012-02-16T14:20:19Z</time>
      </trkpt>
      <trkpt lat="47.04802" lon="5.48864">
        <ele>197.20752</ele>
        <time>2012-02-16T14:20:43Z</time>
      </trkpt>
      <trkpt lat="47.04801" lon="5.48865">
        <ele>197.20752</ele>
        <time>2012-02-16T14:20:45Z</time>
      </trkpt>
      <trkpt lat="47.04777" lon="5.48881">
        <ele>196.726929</ele>
        <time>2012-02-16T14:21:04Z</time>
      </trkpt>
      <trkpt lat="47.04757" lon="5.48891">
        <ele>196.726929</ele>
        <time>2012-02-16T14:21:20Z</time>
      </trkpt>
      <trkpt lat="47.04749" lon="5.48895">
        <ele>197.20752</ele>
        <time>2012-02-16T14:21:26Z</time>
      </trkpt>
      <trkpt lat="47.04729" lon="5.48892">
        <ele>196.726929</ele>
        <time>2012-02-16T14:21:42Z</time>
      </trkpt>
      <trkpt lat="47.04705" lon="5.48886">
        <ele>196.726929</ele>
        <time>2012-02-16T14:22:00Z</time>
      </trkpt>
      <trkpt lat="47.04677" lon="5.48869">
        <ele>196.726929</ele>
        <time>2012-02-16T14:22:22Z</time>
      </trkpt>
      <trkpt lat="47.04658" lon="5.48857">
        <ele>196.726929</ele>
        <time>2012-02-16T14:22:38Z</time>
      </trkpt>
      <trkpt lat="47.04635" lon="5.48839">
        <ele>197.20752</ele>
        <time>2012-02-16T14:22:55Z</time>
      </trkpt>
      <trkpt lat="47.04612" lon="5.48827">
        <ele>196.726929</ele>
        <time>2012-02-16T14:23:13Z</time>
      </trkpt>
      <trkpt lat="47.04608" lon="5.48827">
        <ele>197.20752</ele>
        <time>2012-02-16T14:23:16Z</time>
      </trkpt>
      <trkpt lat="47.04595" lon="5.48829">
        <ele>196.726929</ele>
        <time>2012-02-16T14:23:26Z</time>
      </trkpt>
      <trkpt lat="47.0459" lon="5.4883">
        <ele>197.20752</ele>
        <time>2012-02-16T14:23:30Z</time>
      </trkpt>
      <trkpt lat="47.04586" lon="5.48856">
        <ele>196.726929</ele>
        <time>2012-02-16T14:23:44Z</time>
      </trkpt>
      <trkpt lat="47.04587" lon="5.48872">
        <ele>197.20752</ele>
        <time>2012-02-16T14:23:53Z</time>
      </trkpt>
      <trkpt lat="47.04583" lon="5.48902">
        <ele>196.726929</ele>
        <time>2012-02-16T14:24:10Z</time>
      </trkpt>
      <trkpt lat="47.04579" lon="5.48921">
        <ele>196.726929</ele>
        <time>2012-02-16T14:24:23Z</time>
      </trkpt>
      <trkpt lat="47.04579" lon="5.4895">
        <ele>196.726929</ele>
        <time>2012-02-16T14:24:43Z</time>
      </trkpt>
      <trkpt lat="47.04579" lon="5.48957">
        <ele>196.726929</ele>
        <time>2012-02-16T14:24:48Z</time>
      </trkpt>
      <trkpt lat="47.04575" lon="5.48989">
        <ele>196.726929</ele>
        <time>2012-02-16T14:25:05Z</time>
      </trkpt>
      <trkpt lat="47.04572" lon="5.49026">
        <ele>196.246338</ele>
        <time>2012-02-16T14:25:26Z</time>
      </trkpt>
      <trkpt lat="47.0457" lon="5.49053">
        <ele>196.726929</ele>
        <time>2012-02-16T14:25:43Z</time>
      </trkpt>
      <trkpt lat="47.04565" lon="5.49092">
        <ele>196.726929</ele>
        <time>2012-02-16T14:26:05Z</time>
      </trkpt>
      <trkpt lat="47.0456" lon="5.49136">
        <ele>196.726929</ele>
        <time>2012-02-16T14:26:28Z</time>
      </trkpt>
      <trkpt lat="47.04558" lon="5.49159">
        <ele>197.20752</ele>
        <time>2012-02-16T14:26:40Z</time>
      </trkpt>
      <trkpt lat="47.04555" lon="5.49174">
        <ele>198.168945</ele>
        <time>2012-02-16T14:26:51Z</time>
      </trkpt>
      <trkpt lat="47.04549" lon="5.4921">
        <ele>196.726929</ele>
        <time>2012-02-16T14:27:09Z</time>
      </trkpt>
      <trkpt lat="47.04543" lon="5.49232">
        <ele>196.726929</ele>
        <time>2012-02-16T14:27:21Z</time>
      </trkpt>
      <trkpt lat="47.0454" lon="5.49256">
        <ele>198.168945</ele>
        <time>2012-02-16T14:27:33Z</time>
      </trkpt>
      <trkpt lat="47.04531" lon="5.49303">
        <ele>199.130127</ele>
        <time>2012-02-16T14:28:00Z</time>
      </trkpt>
      <trkpt lat="47.04524" lon="5.49333">
        <ele>199.130127</ele>
        <time>2012-02-16T14:28:20Z</time>
      </trkpt>
      <trkpt lat="47.0452" lon="5.49365">
        <ele>197.688232</ele>
        <time>2012-02-16T14:28:39Z</time>
      </trkpt>
      <trkpt lat="47.04512" lon="5.49397">
        <ele>197.20752</ele>
        <time>2012-02-16T14:28:57Z</time>
      </trkpt>
      <trkpt lat="47.04512" lon="5.49409">
        <ele>197.20752</ele>
        <time>2012-02-16T14:29:01Z</time>
      </trkpt>
      <trkpt lat="47.04508" lon="5.49441">
        <ele>197.688232</ele>
        <time>2012-02-16T14:29:16Z</time>
      </trkpt>
      <trkpt lat="47.04507" lon="5.49469">
        <ele>197.688232</ele>
        <time>2012-02-16T14:29:31Z</time>
      </trkpt>
      <trkpt lat="47.04504" lon="5.49503">
        <ele>198.168945</ele>
        <time>2012-02-16T14:29:49Z</time>
      </trkpt>
      <trkpt lat="47.04503" lon="5.49521">
        <ele>198.168945</ele>
        <time>2012-02-16T14:29:59Z</time>
      </trkpt>
      <trkpt lat="47.04503" lon="5.49528">
        <ele>197.688232</ele>
        <time>2012-02-16T14:30:02Z</time>
      </trkpt>
      <trkpt lat="47.04503" lon="5.49533">
        <ele>198.168945</ele>
        <time>2012-02-16T14:30:05Z</time>
      </trkpt>
      <trkpt lat="47.04504" lon="5.49554">
        <ele>198.168945</ele>
        <time>2012-02-16T14:30:15Z</time>
      </trkpt>
      <trkpt lat="47.04501" lon="5.49579">
        <ele>198.649536</ele>
        <time>2012-02-16T14:30:30Z</time>
      </trkpt>
      <trkpt lat="47.04503" lon="5.49606">
        <ele>198.649536</ele>
        <time>2012-02-16T14:30:42Z</time>
      </trkpt>
      <trkpt lat="47.04508" lon="5.49637">
        <ele>199.130127</ele>
        <time>2012-02-16T14:31:02Z</time>
      </trkpt>
      <trkpt lat="47.04523" lon="5.49647">
        <ele>200.091675</ele>
        <time>2012-02-16T14:31:17Z</time>
      </trkpt>
      <trkpt lat="47.04545" lon="5.49665">
        <ele>200.091675</ele>
        <time>2012-02-16T14:31:38Z</time>
      </trkpt>
      <trkpt lat="47.04566" lon="5.49678">
        <ele>201.533569</ele>
        <time>2012-02-16T14:31:58Z</time>
      </trkpt>
      <trkpt lat="47.04586" lon="5.49693">
        <ele>203.456177</ele>
        <time>2012-02-16T14:32:15Z</time>
      </trkpt>
      <trkpt lat="47.04603" lon="5.49703">
        <ele>203.93689</ele>
        <time>2012-02-16T14:32:30Z</time>
      </trkpt>
      <trkpt lat="47.04613" lon="5.49711">
        <ele>204.898071</ele>
        <time>2012-02-16T14:32:43Z</time>
      </trkpt>
      <trkpt lat="47.04623" lon="5.49719">
        <ele>205.378784</ele>
        <time>2012-02-16T14:32:53Z</time>
      </trkpt>
      <trkpt lat="47.0464" lon="5.49735">
        <ele>206.820679</ele>
        <time>2012-02-16T14:33:05Z</time>
      </trkpt>
      <trkpt lat="47.04653" lon="5.49741">
        <ele>206.820679</ele>
        <time>2012-02-16T14:33:14Z</time>
      </trkpt>
      <trkpt lat="47.04667" lon="5.49747">
        <ele>207.301392</ele>
        <time>2012-02-16T14:33:28Z</time>
      </trkpt>
      <trkpt lat="47.04673" lon="5.49754">
        <ele>207.301392</ele>
        <time>2012-02-16T14:33:43Z</time>
      </trkpt>
      <trkpt lat="47.04679" lon="5.49755">
        <ele>207.301392</ele>
        <time>2012-02-16T14:33:52Z</time>
      </trkpt>
      <trkpt lat="47.047" lon="5.4976">
        <ele>208.743408</ele>
        <time>2012-02-16T14:34:07Z</time>
      </trkpt>
      <trkpt lat="47.04724" lon="5.49768">
        <ele>210.666016</ele>
        <time>2012-02-16T14:34:26Z</time>
      </trkpt>
      <trkpt lat="47.04746" lon="5.49771">
        <ele>210.666016</ele>
        <time>2012-02-16T14:34:44Z</time>
      </trkpt>
      <trkpt lat="47.04759" lon="5.49769">
        <ele>211.146729</ele>
        <time>2012-02-16T14:34:53Z</time>
      </trkpt>
      <trkpt lat="47.04771" lon="5.49758">
        <ele>211.146729</ele>
        <time>2012-02-16T14:35:03Z</time>
      </trkpt>
      <trkpt lat="47.0478" lon="5.49729">
        <ele>211.627441</ele>
        <time>2012-02-16T14:35:21Z</time>
      </trkpt>
      <trkpt lat="47.04783" lon="5.49715">
        <ele>211.146729</ele>
        <time>2012-02-16T14:35:31Z</time>
      </trkpt>
      <trkpt lat="47.04793" lon="5.49703">
        <ele>211.146729</ele>
        <time>2012-02-16T14:35:38Z</time>
      </trkpt>
      <trkpt lat="47.04815" lon="5.49688">
        <ele>212.108032</ele>
        <time>2012-02-16T14:35:54Z</time>
      </trkpt>
      <trkpt lat="47.04827" lon="5.49676">
        <ele>212.108032</ele>
        <time>2012-02-16T14:36:07Z</time>
      </trkpt>
      <trkpt lat="47.04842" lon="5.49654">
        <ele>211.627441</ele>
        <time>2012-02-16T14:36:25Z</time>
      </trkpt>
      <trkpt lat="47.04853" lon="5.49635">
        <ele>210.666016</ele>
        <time>2012-02-16T14:36:39Z</time>
      </trkpt>
      <trkpt lat="47.04859" lon="5.49632">
        <ele>210.666016</ele>
        <time>2012-02-16T14:36:45Z</time>
      </trkpt>
      <trkpt lat="47.04866" lon="5.49644">
        <ele>210.666016</ele>
        <time>2012-02-16T14:36:56Z</time>
      </trkpt>
      <trkpt lat="47.04867" lon="5.49647">
        <ele>211.146729</ele>
        <time>2012-02-16T14:36:58Z</time>
      </trkpt>
      <trkpt lat="47.04869" lon="5.49652">
        <ele>211.146729</ele>
        <time>2012-02-16T14:37:02Z</time>
      </trkpt>
      <trkpt lat="47.04877" lon="5.49667">
        <ele>211.146729</ele>
        <time>2012-02-16T14:37:13Z</time>
      </trkpt>
      <trkpt lat="47.04891" lon="5.49687">
        <ele>211.627441</ele>
        <time>2012-02-16T14:37:28Z</time>
      </trkpt>
      <trkpt lat="47.0491" lon="5.49705">
        <ele>212.588623</ele>
        <time>2012-02-16T14:37:43Z</time>
      </trkpt>
      <trkpt lat="47.0493" lon="5.49729">
        <ele>213.069336</ele>
        <time>2012-02-16T14:38:03Z</time>
      </trkpt>
      <trkpt lat="47.04939" lon="5.49741">
        <ele>213.069336</ele>
        <time>2012-02-16T14:38:14Z</time>
      </trkpt>
      <trkpt lat="47.04956" lon="5.49759">
        <ele>214.03064</ele>
        <time>2012-02-16T14:38:31Z</time>
      </trkpt>
      <trkpt lat="47.04968" lon="5.49775">
        <ele>214.51123</ele>
        <time>2012-02-16T14:38:47Z</time>
      </trkpt>
      <trkpt lat="47.0497" lon="5.49788">
        <ele>214.991943</ele>
        <time>2012-02-16T14:38:55Z</time>
      </trkpt>
      <trkpt lat="47.04961" lon="5.49811">
        <ele>214.991943</ele>
        <time>2012-02-16T14:39:10Z</time>
      </trkpt>
      <trkpt lat="47.04951" lon="5.49836">
        <ele>214.51123</ele>
        <time>2012-02-16T14:39:26Z</time>
      </trkpt>
      <trkpt lat="47.04941" lon="5.49862">
        <ele>214.51123</ele>
        <time>2012-02-16T14:39:41Z</time>
      </trkpt>
      <trkpt lat="47.04928" lon="5.49896">
        <ele>214.51123</ele>
        <time>2012-02-16T14:40:03Z</time>
      </trkpt>
      <trkpt lat="47.04915" lon="5.49925">
        <ele>215.472656</ele>
        <time>2012-02-16T14:40:23Z</time>
      </trkpt>
      <trkpt lat="47.04903" lon="5.49957">
        <ele>215.472656</ele>
        <time>2012-02-16T14:40:43Z</time>
      </trkpt>
      <trkpt lat="47.04891" lon="5.49987">
        <ele>215.472656</ele>
        <time>2012-02-16T14:41:01Z</time>
      </trkpt>
      <trkpt lat="47.04875" lon="5.50023">
        <ele>215.953247</ele>
        <time>2012-02-16T14:41:23Z</time>
      </trkpt>
      <trkpt lat="47.04857" lon="5.50062">
        <ele>215.472656</ele>
        <time>2012-02-16T14:41:47Z</time>
      </trkpt>
      <trkpt lat="47.04846" lon="5.50085">
        <ele>215.953247</ele>
        <time>2012-02-16T14:42:03Z</time>
      </trkpt>
      <trkpt lat="47.04836" lon="5.5011">
        <ele>216.43396</ele>
        <time>2012-02-16T14:42:18Z</time>
      </trkpt>
      <trkpt lat="47.04826" lon="5.50131">
        <ele>215.953247</ele>
        <time>2012-02-16T14:42:34Z</time>
      </trkpt>
      <trkpt lat="47.04812" lon="5.50149">
        <ele>215.953247</ele>
        <time>2012-02-16T14:42:51Z</time>
      </trkpt>
      <trkpt lat="47.04792" lon="5.50155">
        <ele>215.472656</ele>
        <time>2012-02-16T14:43:08Z</time>
      </trkpt>
      <trkpt lat="47.04769" lon="5.50153">
        <ele>214.991943</ele>
        <time>2012-02-16T14:43:27Z</time>
      </trkpt>
      <trkpt lat="47.04746" lon="5.5017">
        <ele>214.03064</ele>
        <time>2012-02-16T14:43:48Z</time>
      </trkpt>
      <trkpt lat="47.04734" lon="5.50185">
        <ele>212.108032</ele>
        <time>2012-02-16T14:44:05Z</time>
      </trkpt>
      <trkpt lat="47.04718" lon="5.50207">
        <ele>210.666016</ele>
        <time>2012-02-16T14:44:23Z</time>
      </trkpt>
      <trkpt lat="47.04701" lon="5.50232">
        <ele>208.743408</ele>
        <time>2012-02-16T14:44:44Z</time>
      </trkpt>
      <trkpt lat="47.04689" lon="5.50249">
        <ele>206.820679</ele>
        <time>2012-02-16T14:44:58Z</time>
      </trkpt>
      <trkpt lat="47.04677" lon="5.50266">
        <ele>205.859497</ele>
        <time>2012-02-16T14:45:12Z</time>
      </trkpt>
      <trkpt lat="47.04675" lon="5.50273">
        <ele>205.378784</ele>
        <time>2012-02-16T14:45:16Z</time>
      </trkpt>
      <trkpt lat="47.04675" lon="5.503">
        <ele>205.859497</ele>
        <time>2012-02-16T14:45:30Z</time>
      </trkpt>
      <trkpt lat="47.04676" lon="5.50307">
        <ele>205.859497</ele>
        <time>2012-02-16T14:45:34Z</time>
      </trkpt>
      <trkpt lat="47.04676" lon="5.50315">
        <ele>206.340088</ele>
        <time>2012-02-16T14:45:37Z</time>
      </trkpt>
      <trkpt lat="47.04673" lon="5.50353">
        <ele>205.859497</ele>
        <time>2012-02-16T14:45:59Z</time>
      </trkpt>
      <trkpt lat="47.04661" lon="5.50397">
        <ele>205.378784</ele>
        <time>2012-02-16T14:46:25Z</time>
      </trkpt>
      <trkpt lat="47.04651" lon="5.50428">
        <ele>205.859497</ele>
        <time>2012-02-16T14:46:42Z</time>
      </trkpt>
      <trkpt lat="47.04639" lon="5.50471">
        <ele>205.378784</ele>
        <time>2012-02-16T14:47:05Z</time>
      </trkpt>
      <trkpt lat="47.04643" lon="5.50498">
        <ele>206.820679</ele>
        <time>2012-02-16T14:47:21Z</time>
      </trkpt>
      <trkpt lat="47.04647" lon="5.50507">
        <ele>206.340088</ele>
        <time>2012-02-16T14:47:26Z</time>
      </trkpt>
      <trkpt lat="47.04652" lon="5.50517">
        <ele>207.301392</ele>
        <time>2012-02-16T14:47:35Z</time>
      </trkpt>
      <trkpt lat="47.04665" lon="5.50534">
        <ele>208.743408</ele>
        <time>2012-02-16T14:47:49Z</time>
      </trkpt>
      <trkpt lat="47.04675" lon="5.50544">
        <ele>209.224121</ele>
        <time>2012-02-16T14:47:58Z</time>
      </trkpt>
      <trkpt lat="47.04676" lon="5.50547">
        <ele>209.704834</ele>
        <time>2012-02-16T14:48:01Z</time>
      </trkpt>
      <trkpt lat="47.04691" lon="5.50571">
        <ele>210.666016</ele>
        <time>2012-02-16T14:48:20Z</time>
      </trkpt>
      <trkpt lat="47.04702" lon="5.50588">
        <ele>211.146729</ele>
        <time>2012-02-16T14:48:32Z</time>
      </trkpt>
      <trkpt lat="47.04704" lon="5.50591">
        <ele>211.627441</ele>
        <time>2012-02-16T14:48:35Z</time>
      </trkpt>
      <trkpt lat="47.0471" lon="5.50603">
        <ele>212.108032</ele>
        <time>2012-02-16T14:48:44Z</time>
      </trkpt>
      <trkpt lat="47.04717" lon="5.50633">
        <ele>212.588623</ele>
        <time>2012-02-16T14:49:02Z</time>
      </trkpt>
      <trkpt lat="47.04719" lon="5.50643">
        <ele>212.588623</ele>
        <time>2012-02-16T14:49:07Z</time>
      </trkpt>
      <trkpt lat="47.04722" lon="5.50663">
        <ele>213.550049</ele>
        <time>2012-02-16T14:49:18Z</time>
      </trkpt>
      <trkpt lat="47.04723" lon="5.50681">
        <ele>214.03064</ele>
        <time>2012-02-16T14:49:29Z</time>
      </trkpt>
      <trkpt lat="47.04726" lon="5.50694">
        <ele>214.51123</ele>
        <time>2012-02-16T14:49:37Z</time>
      </trkpt>
      <trkpt lat="47.04721" lon="5.50721">
        <ele>214.51123</ele>
        <time>2012-02-16T14:49:55Z</time>
      </trkpt>
      <trkpt lat="47.04713" lon="5.5075">
        <ele>214.991943</ele>
        <time>2012-02-16T14:50:13Z</time>
      </trkpt>
      <trkpt lat="47.04707" lon="5.50777">
        <ele>214.03064</ele>
        <time>2012-02-16T14:50:30Z</time>
      </trkpt>
      <trkpt lat="47.04707" lon="5.50783">
        <ele>214.03064</ele>
        <time>2012-02-16T14:50:33Z</time>
      </trkpt>
      <trkpt lat="47.04724" lon="5.50806">
        <ele>214.991943</ele>
        <time>2012-02-16T14:50:53Z</time>
      </trkpt>
      <trkpt lat="47.04734" lon="5.50822">
        <ele>215.472656</ele>
        <time>2012-02-16T14:51:06Z</time>
      </trkpt>
      <trkpt lat="47.0475" lon="5.50838">
        <ele>215.472656</ele>
        <time>2012-02-16T14:51:23Z</time>
      </trkpt>
      <trkpt lat="47.04765" lon="5.50853">
        <ele>215.472656</ele>
        <time>2012-02-16T14:51:39Z</time>
      </trkpt>
      <trkpt lat="47.04778" lon="5.50867">
        <ele>215.953247</ele>
        <time>2012-02-16T14:51:52Z</time>
      </trkpt>
      <trkpt lat="47.04792" lon="5.50877">
        <ele>215.472656</ele>
        <time>2012-02-16T14:52:08Z</time>
      </trkpt>
      <trkpt lat="47.04803" lon="5.50892">
        <ele>215.953247</ele>
        <time>2012-02-16T14:52:25Z</time>
      </trkpt>
      <trkpt lat="47.04814" lon="5.50908">
        <ele>215.953247</ele>
        <time>2012-02-16T14:52:42Z</time>
      </trkpt>
      <trkpt lat="47.04828" lon="5.50923">
        <ele>215.953247</ele>
        <time>2012-02-16T14:53:01Z</time>
      </trkpt>
      <trkpt lat="47.04845" lon="5.50943">
        <ele>215.953247</ele>
        <time>2012-02-16T14:53:20Z</time>
      </trkpt>
      <trkpt lat="47.04856" lon="5.50956">
        <ele>214.991943</ele>
        <time>2012-02-16T14:53:34Z</time>
      </trkpt>
      <trkpt lat="47.04874" lon="5.50973">
        <ele>214.51123</ele>
        <time>2012-02-16T14:53:51Z</time>
      </trkpt>
      <trkpt lat="47.04886" lon="5.50988">
        <ele>213.550049</ele>
        <time>2012-02-16T14:54:05Z</time>
      </trkpt>
      <trkpt lat="47.04899" lon="5.51004">
        <ele>213.069336</ele>
        <time>2012-02-16T14:54:18Z</time>
      </trkpt>
      <trkpt lat="47.04901" lon="5.51015">
        <ele>214.03064</ele>
        <time>2012-02-16T14:54:24Z</time>
      </trkpt>
      <trkpt lat="47.04893" lon="5.51033">
        <ele>213.550049</ele>
        <time>2012-02-16T14:54:40Z</time>
      </trkpt>
      <trkpt lat="47.04884" lon="5.51058">
        <ele>214.51123</ele>
        <time>2012-02-16T14:54:57Z</time>
      </trkpt>
      <trkpt lat="47.04882" lon="5.51066">
        <ele>214.03064</ele>
        <time>2012-02-16T14:55:13Z</time>
      </trkpt>
      <trkpt lat="47.0488" lon="5.51067">
        <ele>214.51123</ele>
        <time>2012-02-16T14:55:40Z</time>
      </trkpt>
      <trkpt lat="47.04879" lon="5.51068">
        <ele>213.550049</ele>
        <time>2012-02-16T15:00:19Z</time>
      </trkpt>
      <trkpt lat="47.04886" lon="5.51083">
        <ele>213.550049</ele>
        <time>2012-02-16T15:02:43Z</time>
      </trkpt>
      <trkpt lat="47.04893" lon="5.51099">
        <ele>213.069336</ele>
        <time>2012-02-16T15:02:58Z</time>
      </trkpt>
      <trkpt lat="47.04895" lon="5.51103">
        <ele>213.069336</ele>
        <time>2012-02-16T15:03:02Z</time>
      </trkpt>
      <trkpt lat="47.0491" lon="5.51131">
        <ele>212.588623</ele>
        <time>2012-02-16T15:03:21Z</time>
      </trkpt>
      <trkpt lat="47.04919" lon="5.5114">
        <ele>212.108032</ele>
        <time>2012-02-16T15:03:33Z</time>
      </trkpt>
      <trkpt lat="47.04934" lon="5.51161">
        <ele>211.627441</ele>
        <time>2012-02-16T15:03:53Z</time>
      </trkpt>
      <trkpt lat="47.04938" lon="5.51192">
        <ele>213.069336</ele>
        <time>2012-02-16T15:04:16Z</time>
      </trkpt>
      <trkpt lat="47.04957" lon="5.51207">
        <ele>213.550049</ele>
        <time>2012-02-16T15:04:36Z</time>
      </trkpt>
      <trkpt lat="47.04959" lon="5.51222">
        <ele>214.991943</ele>
        <time>2012-02-16T15:04:54Z</time>
      </trkpt>
      <trkpt lat="47.04966" lon="5.51252">
        <ele>216.914673</ele>
        <time>2012-02-16T15:05:16Z</time>
      </trkpt>
      <trkpt lat="47.04974" lon="5.51277">
        <ele>218.356567</ele>
        <time>2012-02-16T15:05:38Z</time>
      </trkpt>
      <trkpt lat="47.04974" lon="5.513">
        <ele>220.279175</ele>
        <time>2012-02-16T15:05:58Z</time>
      </trkpt>
      <trkpt lat="47.04981" lon="5.51299">
        <ele>220.759888</ele>
        <time>2012-02-16T15:06:14Z</time>
      </trkpt>
      <trkpt lat="47.05001" lon="5.51287">
        <ele>220.759888</ele>
        <time>2012-02-16T15:06:32Z</time>
      </trkpt>
      <trkpt lat="47.05025" lon="5.51273">
        <ele>221.721191</ele>
        <time>2012-02-16T15:06:53Z</time>
      </trkpt>
      <trkpt lat="47.0504" lon="5.51262">
        <ele>222.682495</ele>
        <time>2012-02-16T15:07:08Z</time>
      </trkpt>
      <trkpt lat="47.0506" lon="5.51246">
        <ele>223.643799</ele>
        <time>2012-02-16T15:07:26Z</time>
      </trkpt>
      <trkpt lat="47.05061" lon="5.51246">
        <ele>223.643799</ele>
        <time>2012-02-16T15:07:27Z</time>
      </trkpt>
      <trkpt lat="47.05075" lon="5.51236">
        <ele>224.124512</ele>
        <time>2012-02-16T15:07:41Z</time>
      </trkpt>
      <trkpt lat="47.0509" lon="5.51225">
        <ele>224.605225</ele>
        <time>2012-02-16T15:07:55Z</time>
      </trkpt>
      <trkpt lat="47.05109" lon="5.51202">
        <ele>226.047119</ele>
        <time>2012-02-16T15:08:18Z</time>
      </trkpt>
      <trkpt lat="47.05127" lon="5.51186">
        <ele>227.008545</ele>
        <time>2012-02-16T15:08:34Z</time>
      </trkpt>
      <trkpt lat="47.05133" lon="5.51179">
        <ele>227.008545</ele>
        <time>2012-02-16T15:08:38Z</time>
      </trkpt>
      <trkpt lat="47.05147" lon="5.51167">
        <ele>227.969727</ele>
        <time>2012-02-16T15:08:54Z</time>
      </trkpt>
      <trkpt lat="47.05164" lon="5.5115">
        <ele>229.411743</ele>
        <time>2012-02-16T15:09:12Z</time>
      </trkpt>
      <trkpt lat="47.0517" lon="5.51147">
        <ele>228.931152</ele>
        <time>2012-02-16T15:09:17Z</time>
      </trkpt>
      <trkpt lat="47.05172" lon="5.51144">
        <ele>229.411743</ele>
        <time>2012-02-16T15:09:19Z</time>
      </trkpt>
      <trkpt lat="47.05177" lon="5.51142">
        <ele>229.411743</ele>
        <time>2012-02-16T15:09:23Z</time>
      </trkpt>
      <trkpt lat="47.05184" lon="5.51139">
        <ele>229.411743</ele>
        <time>2012-02-16T15:09:29Z</time>
      </trkpt>
      <trkpt lat="47.05198" lon="5.51135">
        <ele>230.373047</ele>
        <time>2012-02-16T15:09:42Z</time>
      </trkpt>
      <trkpt lat="47.05212" lon="5.51158">
        <ele>232.295776</ele>
        <time>2012-02-16T15:09:57Z</time>
      </trkpt>
      <trkpt lat="47.05214" lon="5.51164">
        <ele>232.295776</ele>
        <time>2012-02-16T15:10:01Z</time>
      </trkpt>
      <trkpt lat="47.05216" lon="5.51191">
        <ele>234.218384</ele>
        <time>2012-02-16T15:10:18Z</time>
      </trkpt>
      <trkpt lat="47.05221" lon="5.51204">
        <ele>235.179688</ele>
        <time>2012-02-16T15:10:28Z</time>
      </trkpt>
      <trkpt lat="47.05228" lon="5.51227">
        <ele>237.102295</ele>
        <time>2012-02-16T15:10:44Z</time>
      </trkpt>
      <trkpt lat="47.05235" lon="5.51222">
        <ele>238.063599</ele>
        <time>2012-02-16T15:10:58Z</time>
      </trkpt>
      <trkpt lat="47.05252" lon="5.51216">
        <ele>238.544312</ele>
        <time>2012-02-16T15:11:14Z</time>
      </trkpt>
      <trkpt lat="47.05266" lon="5.5121">
        <ele>238.063599</ele>
        <time>2012-02-16T15:11:27Z</time>
      </trkpt>
      <trkpt lat="47.05273" lon="5.51207">
        <ele>238.544312</ele>
        <time>2012-02-16T15:11:33Z</time>
      </trkpt>
      <trkpt lat="47.05285" lon="5.51204">
        <ele>239.024902</ele>
        <time>2012-02-16T15:11:42Z</time>
      </trkpt>
      <trkpt lat="47.053" lon="5.51195">
        <ele>239.986206</ele>
        <time>2012-02-16T15:11:55Z</time>
      </trkpt>
      <trkpt lat="47.05316" lon="5.51182">
        <ele>240.467041</ele>
        <time>2012-02-16T15:12:12Z</time>
      </trkpt>
      <trkpt lat="47.05324" lon="5.5118">
        <ele>240.467041</ele>
        <time>2012-02-16T15:12:24Z</time>
      </trkpt>
      <trkpt lat="47.05341" lon="5.51171">
        <ele>240.947632</ele>
        <time>2012-02-16T15:12:41Z</time>
      </trkpt>
      <trkpt lat="47.05359" lon="5.51162">
        <ele>240.947632</ele>
        <time>2012-02-16T15:12:58Z</time>
      </trkpt>
      <trkpt lat="47.0537" lon="5.51159">
        <ele>241.428223</ele>
        <time>2012-02-16T15:13:09Z</time>
      </trkpt>
      <trkpt lat="47.05385" lon="5.51155">
        <ele>241.428223</ele>
        <time>2012-02-16T15:13:24Z</time>
      </trkpt>
      <trkpt lat="47.05389" lon="5.51152">
        <ele>241.428223</ele>
        <time>2012-02-16T15:13:28Z</time>
      </trkpt>
      <trkpt lat="47.05403" lon="5.51139">
        <ele>241.428223</ele>
        <time>2012-02-16T15:13:43Z</time>
      </trkpt>
      <trkpt lat="47.0542" lon="5.51133">
        <ele>240.467041</ele>
        <time>2012-02-16T15:13:59Z</time>
      </trkpt>
      <trkpt lat="47.05438" lon="5.51122">
        <ele>240.467041</ele>
        <time>2012-02-16T15:14:15Z</time>
      </trkpt>
      <trkpt lat="47.05457" lon="5.51112">
        <ele>239.505493</ele>
        <time>2012-02-16T15:14:28Z</time>
      </trkpt>
      <trkpt lat="47.05469" lon="5.51107">
        <ele>239.505493</ele>
        <time>2012-02-16T15:14:43Z</time>
      </trkpt>
      <trkpt lat="47.05482" lon="5.51099">
        <ele>239.024902</ele>
        <time>2012-02-16T15:14:54Z</time>
      </trkpt>
      <trkpt lat="47.05493" lon="5.51097">
        <ele>238.544312</ele>
        <time>2012-02-16T15:15:04Z</time>
      </trkpt>
      <trkpt lat="47.05494" lon="5.51091">
        <ele>239.024902</ele>
        <time>2012-02-16T15:15:24Z</time>
      </trkpt>
      <trkpt lat="47.0551" lon="5.51094">
        <ele>239.024902</ele>
        <time>2012-02-16T15:15:38Z</time>
      </trkpt>
      <trkpt lat="47.0551" lon="5.51097">
        <ele>239.024902</ele>
        <time>2012-02-16T15:15:39Z</time>
      </trkpt>
      <trkpt lat="47.05516" lon="5.51114">
        <ele>238.063599</ele>
        <time>2012-02-16T15:15:51Z</time>
      </trkpt>
      <trkpt lat="47.05518" lon="5.51125">
        <ele>238.544312</ele>
        <time>2012-02-16T15:15:56Z</time>
      </trkpt>
      <trkpt lat="47.05523" lon="5.51139">
        <ele>238.544312</ele>
        <time>2012-02-16T15:16:04Z</time>
      </trkpt>
      <trkpt lat="47.05522" lon="5.51156">
        <ele>238.544312</ele>
        <time>2012-02-16T15:16:12Z</time>
      </trkpt>
      <trkpt lat="47.05531" lon="5.51186">
        <ele>238.544312</ele>
        <time>2012-02-16T15:16:30Z</time>
      </trkpt>
      <trkpt lat="47.05536" lon="5.5119">
        <ele>238.544312</ele>
        <time>2012-02-16T15:16:33Z</time>
      </trkpt>
      <trkpt lat="47.05539" lon="5.51193">
        <ele>238.063599</ele>
        <time>2012-02-16T15:16:36Z</time>
      </trkpt>
      <trkpt lat="47.05538" lon="5.51205">
        <ele>238.063599</ele>
        <time>2012-02-16T15:16:41Z</time>
      </trkpt>
      <trkpt lat="47.0554" lon="5.51213">
        <ele>238.063599</ele>
        <time>2012-02-16T15:16:44Z</time>
      </trkpt>
      <trkpt lat="47.05551" lon="5.51239">
        <ele>238.063599</ele>
        <time>2012-02-16T15:16:58Z</time>
      </trkpt>
      <trkpt lat="47.05554" lon="5.51249">
        <ele>237.582886</ele>
        <time>2012-02-16T15:17:03Z</time>
      </trkpt>
      <trkpt lat="47.05554" lon="5.51257">
        <ele>237.102295</ele>
        <time>2012-02-16T15:17:06Z</time>
      </trkpt>
      <trkpt lat="47.05556" lon="5.5127">
        <ele>236.621704</ele>
        <time>2012-02-16T15:17:13Z</time>
      </trkpt>
      <trkpt lat="47.05554" lon="5.51283">
        <ele>236.621704</ele>
        <time>2012-02-16T15:17:19Z</time>
      </trkpt>
      <trkpt lat="47.05566" lon="5.51306">
        <ele>236.140991</ele>
        <time>2012-02-16T15:17:33Z</time>
      </trkpt>
      <trkpt lat="47.05567" lon="5.51309">
        <ele>236.621704</ele>
        <time>2012-02-16T15:17:35Z</time>
      </trkpt>
      <trkpt lat="47.05567" lon="5.51315">
        <ele>236.621704</ele>
        <time>2012-02-16T15:17:38Z</time>
      </trkpt>
      <trkpt lat="47.0557" lon="5.51336">
        <ele>237.102295</ele>
        <time>2012-02-16T15:17:55Z</time>
      </trkpt>
      <trkpt lat="47.05574" lon="5.51346">
        <ele>237.582886</ele>
        <time>2012-02-16T15:18:17Z</time>
      </trkpt>
      <trkpt lat="47.05578" lon="5.51369">
        <ele>237.582886</ele>
        <time>2012-02-16T15:18:33Z</time>
      </trkpt>
      <trkpt lat="47.05583" lon="5.51391">
        <ele>238.544312</ele>
        <time>2012-02-16T15:18:49Z</time>
      </trkpt>
      <trkpt lat="47.05588" lon="5.51408">
        <ele>239.024902</ele>
        <time>2012-02-16T15:19:01Z</time>
      </trkpt>
      <trkpt lat="47.05595" lon="5.51429">
        <ele>239.024902</ele>
        <time>2012-02-16T15:19:16Z</time>
      </trkpt>
      <trkpt lat="47.05598" lon="5.51434">
        <ele>238.544312</ele>
        <time>2012-02-16T15:19:20Z</time>
      </trkpt>
      <trkpt lat="47.05602" lon="5.5145">
        <ele>239.024902</ele>
        <time>2012-02-16T15:19:32Z</time>
      </trkpt>
      <trkpt lat="47.05604" lon="5.51465">
        <ele>239.024902</ele>
        <time>2012-02-16T15:19:41Z</time>
      </trkpt>
      <trkpt lat="47.05609" lon="5.51488">
        <ele>238.544312</ele>
        <time>2012-02-16T15:19:53Z</time>
      </trkpt>
      <trkpt lat="47.05616" lon="5.51504">
        <ele>238.063599</ele>
        <time>2012-02-16T15:20:06Z</time>
      </trkpt>
      <trkpt lat="47.05619" lon="5.51533">
        <ele>237.102295</ele>
        <time>2012-02-16T15:20:22Z</time>
      </trkpt>
      <trkpt lat="47.05619" lon="5.51553">
        <ele>236.140991</ele>
        <time>2012-02-16T15:20:35Z</time>
      </trkpt>
      <trkpt lat="47.0562" lon="5.51559">
        <ele>235.660278</ele>
        <time>2012-02-16T15:20:38Z</time>
      </trkpt>
      <trkpt lat="47.05625" lon="5.51586">
        <ele>233.737671</ele>
        <time>2012-02-16T15:20:53Z</time>
      </trkpt>
      <trkpt lat="47.0563" lon="5.51615">
        <ele>231.814941</ele>
        <time>2012-02-16T15:21:08Z</time>
      </trkpt>
      <trkpt lat="47.05631" lon="5.51632">
        <ele>230.373047</ele>
        <time>2012-02-16T15:21:20Z</time>
      </trkpt>
      <trkpt lat="47.05631" lon="5.51659">
        <ele>227.969727</ele>
        <time>2012-02-16T15:21:37Z</time>
      </trkpt>
      <trkpt lat="47.05633" lon="5.51681">
        <ele>225.566528</ele>
        <time>2012-02-16T15:21:55Z</time>
      </trkpt>
      <trkpt lat="47.05634" lon="5.51694">
        <ele>225.085938</ele>
        <time>2012-02-16T15:22:02Z</time>
      </trkpt>
      <trkpt lat="47.05636" lon="5.51717">
        <ele>223.163208</ele>
        <time>2012-02-16T15:22:15Z</time>
      </trkpt>
      <trkpt lat="47.05638" lon="5.51747">
        <ele>222.201782</ele>
        <time>2012-02-16T15:22:32Z</time>
      </trkpt>
      <trkpt lat="47.05639" lon="5.51753">
        <ele>222.201782</ele>
        <time>2012-02-16T15:22:35Z</time>
      </trkpt>
      <trkpt lat="47.0564" lon="5.51756">
        <ele>221.721191</ele>
        <time>2012-02-16T15:22:37Z</time>
      </trkpt>
      <trkpt lat="47.05643" lon="5.51787">
        <ele>220.759888</ele>
        <time>2012-02-16T15:22:57Z</time>
      </trkpt>
      <trkpt lat="47.05645" lon="5.5182">
        <ele>221.240601</ele>
        <time>2012-02-16T15:23:18Z</time>
      </trkpt>
      <trkpt lat="47.05651" lon="5.51857">
        <ele>221.721191</ele>
        <time>2012-02-16T15:23:40Z</time>
      </trkpt>
      <trkpt lat="47.05655" lon="5.51885">
        <ele>222.682495</ele>
        <time>2012-02-16T15:23:59Z</time>
      </trkpt>
      <trkpt lat="47.05652" lon="5.51915">
        <ele>224.605225</ele>
        <time>2012-02-16T15:24:21Z</time>
      </trkpt>
      <trkpt lat="47.05649" lon="5.51949">
        <ele>226.527832</ele>
        <time>2012-02-16T15:24:40Z</time>
      </trkpt>
      <trkpt lat="47.05647" lon="5.51958">
        <ele>226.527832</ele>
        <time>2012-02-16T15:24:45Z</time>
      </trkpt>
      <trkpt lat="47.0565" lon="5.5198">
        <ele>228.931152</ele>
        <time>2012-02-16T15:24:58Z</time>
      </trkpt>
      <trkpt lat="47.05647" lon="5.52004">
        <ele>231.334351</ele>
        <time>2012-02-16T15:25:15Z</time>
      </trkpt>
      <trkpt lat="47.05649" lon="5.52022">
        <ele>232.295776</ele>
        <time>2012-02-16T15:25:27Z</time>
      </trkpt>
      <trkpt lat="47.05651" lon="5.52033">
        <ele>233.25708</ele>
        <time>2012-02-16T15:25:32Z</time>
      </trkpt>
      <trkpt lat="47.05651" lon="5.52056">
        <ele>234.218384</ele>
        <time>2012-02-16T15:25:43Z</time>
      </trkpt>
      <trkpt lat="47.05653" lon="5.5208">
        <ele>235.660278</ele>
        <time>2012-02-16T15:25:58Z</time>
      </trkpt>
      <trkpt lat="47.05656" lon="5.52094">
        <ele>236.621704</ele>
        <time>2012-02-16T15:26:14Z</time>
      </trkpt>
      <trkpt lat="47.05661" lon="5.52103">
        <ele>238.063599</ele>
        <time>2012-02-16T15:26:36Z</time>
      </trkpt>
      <trkpt lat="47.05679" lon="5.52084">
        <ele>237.102295</ele>
        <time>2012-02-16T15:26:58Z</time>
      </trkpt>
      <trkpt lat="47.05682" lon="5.52081">
        <ele>237.102295</ele>
        <time>2012-02-16T15:27:00Z</time>
      </trkpt>
      <trkpt lat="47.0571" lon="5.52062">
        <ele>234.699097</ele>
        <time>2012-02-16T15:27:27Z</time>
      </trkpt>
      <trkpt lat="47.0573" lon="5.52046">
        <ele>233.25708</ele>
        <time>2012-02-16T15:27:46Z</time>
      </trkpt>
      <trkpt lat="47.05734" lon="5.52041">
        <ele>232.776489</ele>
        <time>2012-02-16T15:27:49Z</time>
      </trkpt>
      <trkpt lat="47.05748" lon="5.52033">
        <ele>230.85376</ele>
        <time>2012-02-16T15:28:01Z</time>
      </trkpt>
      <trkpt lat="47.05762" lon="5.52021">
        <ele>229.411743</ele>
        <time>2012-02-16T15:28:16Z</time>
      </trkpt>
      <trkpt lat="47.05766" lon="5.52019">
        <ele>228.450439</ele>
        <time>2012-02-16T15:28:24Z</time>
      </trkpt>
      <trkpt lat="47.05777" lon="5.52008">
        <ele>229.892334</ele>
        <time>2012-02-16T15:28:36Z</time>
      </trkpt>
      <trkpt lat="47.05783" lon="5.52005">
        <ele>232.776489</ele>
        <time>2012-02-16T15:28:50Z</time>
      </trkpt>
      <trkpt lat="47.05786" lon="5.52003">
        <ele>234.218384</ele>
        <time>2012-02-16T15:28:55Z</time>
      </trkpt>
      <trkpt lat="47.05802" lon="5.51993">
        <ele>237.102295</ele>
        <time>2012-02-16T15:29:14Z</time>
      </trkpt>
      <trkpt lat="47.05824" lon="5.51977">
        <ele>238.544312</ele>
        <time>2012-02-16T15:29:34Z</time>
      </trkpt>
      <trkpt lat="47.05843" lon="5.51965">
        <ele>239.505493</ele>
        <time>2012-02-16T15:29:53Z</time>
      </trkpt>
      <trkpt lat="47.05865" lon="5.51957">
        <ele>240.467041</ele>
        <time>2012-02-16T15:30:12Z</time>
      </trkpt>
      <trkpt lat="47.05872" lon="5.5196">
        <ele>240.947632</ele>
        <time>2012-02-16T15:30:28Z</time>
      </trkpt>
      <trkpt lat="47.05885" lon="5.51957">
        <ele>240.947632</ele>
        <time>2012-02-16T15:30:48Z</time>
      </trkpt>
      <trkpt lat="47.0589" lon="5.51962">
        <ele>239.986206</ele>
        <time>2012-02-16T15:30:54Z</time>
      </trkpt>
      <trkpt lat="47.05892" lon="5.51969">
        <ele>240.467041</ele>
        <time>2012-02-16T15:30:59Z</time>
      </trkpt>
      <trkpt lat="47.05894" lon="5.51991">
        <ele>240.467041</ele>
        <time>2012-02-16T15:31:13Z</time>
      </trkpt>
      <trkpt lat="47.05891" lon="5.52029">
        <ele>239.986206</ele>
        <time>2012-02-16T15:31:33Z</time>
      </trkpt>
      <trkpt lat="47.05898" lon="5.52072">
        <ele>238.544312</ele>
        <time>2012-02-16T15:31:55Z</time>
      </trkpt>
      <trkpt lat="47.05919" lon="5.52108">
        <ele>237.582886</ele>
        <time>2012-02-16T15:32:20Z</time>
      </trkpt>
      <trkpt lat="47.05943" lon="5.52107">
        <ele>238.063599</ele>
        <time>2012-02-16T15:32:38Z</time>
      </trkpt>
      <trkpt lat="47.05965" lon="5.52108">
        <ele>239.024902</ele>
        <time>2012-02-16T15:32:56Z</time>
      </trkpt>
      <trkpt lat="47.05982" lon="5.52107">
        <ele>239.024902</ele>
        <time>2012-02-16T15:33:08Z</time>
      </trkpt>
      <trkpt lat="47.05998" lon="5.52085">
        <ele>240.947632</ele>
        <time>2012-02-16T15:33:29Z</time>
      </trkpt>
      <trkpt lat="47.0601" lon="5.5208">
        <ele>240.947632</ele>
        <time>2012-02-16T15:33:42Z</time>
      </trkpt>
      <trkpt lat="47.06036" lon="5.52078">
        <ele>241.428223</ele>
        <time>2012-02-16T15:33:58Z</time>
      </trkpt>
      <trkpt lat="47.06044" lon="5.52069">
        <ele>241.908936</ele>
        <time>2012-02-16T15:34:08Z</time>
      </trkpt>
      <trkpt lat="47.06056" lon="5.52058">
        <ele>242.389648</ele>
        <time>2012-02-16T15:34:19Z</time>
      </trkpt>
      <trkpt lat="47.06064" lon="5.52069">
        <ele>241.908936</ele>
        <time>2012-02-16T15:34:29Z</time>
      </trkpt>
      <trkpt lat="47.06065" lon="5.52072">
        <ele>241.428223</ele>
        <time>2012-02-16T15:34:31Z</time>
      </trkpt>
      <trkpt lat="47.06071" lon="5.52096">
        <ele>241.908936</ele>
        <time>2012-02-16T15:34:43Z</time>
      </trkpt>
      <trkpt lat="47.06077" lon="5.52127">
        <ele>241.428223</ele>
        <time>2012-02-16T15:34:56Z</time>
      </trkpt>
      <trkpt lat="47.0608" lon="5.52161">
        <ele>241.908936</ele>
        <time>2012-02-16T15:35:11Z</time>
      </trkpt>
      <trkpt lat="47.06079" lon="5.5218">
        <ele>240.947632</ele>
        <time>2012-02-16T15:35:24Z</time>
      </trkpt>
      <trkpt lat="47.06071" lon="5.52197">
        <ele>240.467041</ele>
        <time>2012-02-16T15:35:34Z</time>
      </trkpt>
      <trkpt lat="47.06057" lon="5.52226">
        <ele>239.986206</ele>
        <time>2012-02-16T15:35:48Z</time>
      </trkpt>
      <trkpt lat="47.06039" lon="5.52245">
        <ele>239.024902</ele>
        <time>2012-02-16T15:36:08Z</time>
      </trkpt>
      <trkpt lat="47.06022" lon="5.52263">
        <ele>238.063599</ele>
        <time>2012-02-16T15:36:26Z</time>
      </trkpt>
      <trkpt lat="47.06028" lon="5.52273">
        <ele>237.582886</ele>
        <time>2012-02-16T15:36:41Z</time>
      </trkpt>
      <trkpt lat="47.06053" lon="5.52282">
        <ele>239.024902</ele>
        <time>2012-02-16T15:37:02Z</time>
      </trkpt>
      <trkpt lat="47.06058" lon="5.5229">
        <ele>239.024902</ele>
        <time>2012-02-16T15:37:09Z</time>
      </trkpt>
      <trkpt lat="47.0607" lon="5.5232">
        <ele>239.505493</ele>
        <time>2012-02-16T15:37:28Z</time>
      </trkpt>
      <trkpt lat="47.06082" lon="5.52336">
        <ele>239.986206</ele>
        <time>2012-02-16T15:37:42Z</time>
      </trkpt>
      <trkpt lat="47.06093" lon="5.52338">
        <ele>240.467041</ele>
        <time>2012-02-16T15:37:50Z</time>
      </trkpt>
      <trkpt lat="47.06114" lon="5.52335">
        <ele>241.428223</ele>
        <time>2012-02-16T15:38:06Z</time>
      </trkpt>
      <trkpt lat="47.06122" lon="5.52356">
        <ele>241.428223</ele>
        <time>2012-02-16T15:38:22Z</time>
      </trkpt>
      <trkpt lat="47.06141" lon="5.52375">
        <ele>241.428223</ele>
        <time>2012-02-16T15:38:41Z</time>
      </trkpt>
      <trkpt lat="47.06166" lon="5.52378">
        <ele>241.428223</ele>
        <time>2012-02-16T15:39:01Z</time>
      </trkpt>
      <trkpt lat="47.06172" lon="5.52371">
        <ele>241.908936</ele>
        <time>2012-02-16T15:39:08Z</time>
      </trkpt>
      <trkpt lat="47.06192" lon="5.52355">
        <ele>241.428223</ele>
        <time>2012-02-16T15:39:25Z</time>
      </trkpt>
      <trkpt lat="47.06201" lon="5.52357">
        <ele>240.947632</ele>
        <time>2012-02-16T15:39:33Z</time>
      </trkpt>
      <trkpt lat="47.06226" lon="5.52368">
        <ele>242.870239</ele>
        <time>2012-02-16T15:39:54Z</time>
      </trkpt>
      <trkpt lat="47.06237" lon="5.52368">
        <ele>242.870239</ele>
        <time>2012-02-16T15:40:01Z</time>
      </trkpt>
      <trkpt lat="47.06248" lon="5.52364">
        <ele>243.35083</ele>
        <time>2012-02-16T15:40:10Z</time>
      </trkpt>
      <trkpt lat="47.0627" lon="5.52355">
        <ele>243.35083</ele>
        <time>2012-02-16T15:40:27Z</time>
      </trkpt>
      <trkpt lat="47.06275" lon="5.52357">
        <ele>243.35083</ele>
        <time>2012-02-16T15:40:32Z</time>
      </trkpt>
      <trkpt lat="47.0629" lon="5.52388">
        <ele>243.831543</ele>
        <time>2012-02-16T15:40:53Z</time>
      </trkpt>
      <trkpt lat="47.06293" lon="5.52406">
        <ele>243.831543</ele>
        <time>2012-02-16T15:41:03Z</time>
      </trkpt>
      <trkpt lat="47.06302" lon="5.52451">
        <ele>244.312256</ele>
        <time>2012-02-16T15:41:23Z</time>
      </trkpt>
      <trkpt lat="47.06306" lon="5.52462">
        <ele>244.792847</ele>
        <time>2012-02-16T15:41:31Z</time>
      </trkpt>
      <trkpt lat="47.06308" lon="5.52489">
        <ele>244.312256</ele>
        <time>2012-02-16T15:41:42Z</time>
      </trkpt>
      <trkpt lat="47.06314" lon="5.52492">
        <ele>244.312256</ele>
        <time>2012-02-16T15:41:45Z</time>
      </trkpt>
      <trkpt lat="47.06322" lon="5.52507">
        <ele>245.273438</ele>
        <time>2012-02-16T15:41:59Z</time>
      </trkpt>
      <trkpt lat="47.06326" lon="5.5252">
        <ele>244.792847</ele>
        <time>2012-02-16T15:42:11Z</time>
      </trkpt>
      <trkpt lat="47.06331" lon="5.52527">
        <ele>244.792847</ele>
        <time>2012-02-16T15:42:32Z</time>
      </trkpt>
      <trkpt lat="47.06328" lon="5.5253">
        <ele>245.273438</ele>
        <time>2012-02-16T15:43:12Z</time>
      </trkpt>
      <trkpt lat="47.06313" lon="5.52539">
        <ele>245.75415</ele>
        <time>2012-02-16T15:46:57Z</time>
      </trkpt>
      <trkpt lat="47.06321" lon="5.52538">
        <ele>245.75415</ele>
        <time>2012-02-16T15:47:42Z</time>
      </trkpt>
      <trkpt lat="47.06321" lon="5.52533">
        <ele>245.273438</ele>
        <time>2012-02-16T15:48:44Z</time>
      </trkpt>
      <trkpt lat="47.06332" lon="5.52512">
        <ele>244.792847</ele>
        <time>2012-02-16T15:51:17Z</time>
      </trkpt>
      <trkpt lat="47.06333" lon="5.52487">
        <ele>244.792847</ele>
        <time>2012-02-16T15:51:30Z</time>
      </trkpt>
      <trkpt lat="47.06326" lon="5.52471">
        <ele>244.792847</ele>
        <time>2012-02-16T15:51:46Z</time>
      </trkpt>
      <trkpt lat="47.06321" lon="5.52445">
        <ele>244.312256</ele>
        <time>2012-02-16T15:52:05Z</time>
      </trkpt>
      <trkpt lat="47.06309" lon="5.52412">
        <ele>243.831543</ele>
        <time>2012-02-16T15:52:27Z</time>
      </trkpt>
      <trkpt lat="47.06304" lon="5.52387">
        <ele>243.35083</ele>
        <time>2012-02-16T15:52:44Z</time>
      </trkpt>
      <trkpt lat="47.06295" lon="5.52356">
        <ele>242.870239</ele>
        <time>2012-02-16T15:53:04Z</time>
      </trkpt>
      <trkpt lat="47.06285" lon="5.5234">
        <ele>242.870239</ele>
        <time>2012-02-16T15:53:17Z</time>
      </trkpt>
      <trkpt lat="47.06292" lon="5.52306">
        <ele>242.870239</ele>
        <time>2012-02-16T15:53:35Z</time>
      </trkpt>
      <trkpt lat="47.06293" lon="5.52305">
        <ele>242.870239</ele>
        <time>2012-02-16T15:53:36Z</time>
      </trkpt>
      <trkpt lat="47.06305" lon="5.52283">
        <ele>242.870239</ele>
        <time>2012-02-16T15:53:53Z</time>
      </trkpt>
      <trkpt lat="47.06326" lon="5.52266">
        <ele>243.35083</ele>
        <time>2012-02-16T15:54:11Z</time>
      </trkpt>
      <trkpt lat="47.06331" lon="5.52252">
        <ele>243.35083</ele>
        <time>2012-02-16T15:54:21Z</time>
      </trkpt>
      <trkpt lat="47.06338" lon="5.52222">
        <ele>243.831543</ele>
        <time>2012-02-16T15:54:38Z</time>
      </trkpt>
      <trkpt lat="47.06337" lon="5.52188">
        <ele>243.35083</ele>
        <time>2012-02-16T15:54:58Z</time>
      </trkpt>
      <trkpt lat="47.06337" lon="5.52155">
        <ele>243.35083</ele>
        <time>2012-02-16T15:55:16Z</time>
      </trkpt>
      <trkpt lat="47.06336" lon="5.52153">
        <ele>242.870239</ele>
        <time>2012-02-16T15:55:17Z</time>
      </trkpt>
      <trkpt lat="47.06336" lon="5.52118">
        <ele>242.870239</ele>
        <time>2012-02-16T15:55:36Z</time>
      </trkpt>
      <trkpt lat="47.06338" lon="5.52095">
        <ele>242.389648</ele>
        <time>2012-02-16T15:55:48Z</time>
      </trkpt>
      <trkpt lat="47.06328" lon="5.52072">
        <ele>242.389648</ele>
        <time>2012-02-16T15:56:04Z</time>
      </trkpt>
      <trkpt lat="47.06312" lon="5.52055">
        <ele>242.870239</ele>
        <time>2012-02-16T15:56:23Z</time>
      </trkpt>
      <trkpt lat="47.06299" lon="5.52032">
        <ele>242.389648</ele>
        <time>2012-02-16T15:56:35Z</time>
      </trkpt>
      <trkpt lat="47.06294" lon="5.52011">
        <ele>241.908936</ele>
        <time>2012-02-16T15:56:44Z</time>
      </trkpt>
      <trkpt lat="47.06287" lon="5.51989">
        <ele>241.908936</ele>
        <time>2012-02-16T15:56:58Z</time>
      </trkpt>
      <trkpt lat="47.06284" lon="5.5196">
        <ele>241.428223</ele>
        <time>2012-02-16T15:57:14Z</time>
      </trkpt>
      <trkpt lat="47.06271" lon="5.51933">
        <ele>240.947632</ele>
        <time>2012-02-16T15:57:30Z</time>
      </trkpt>
      <trkpt lat="47.06262" lon="5.51916">
        <ele>240.947632</ele>
        <time>2012-02-16T15:57:44Z</time>
      </trkpt>
      <trkpt lat="47.0625" lon="5.51896">
        <ele>241.428223</ele>
        <time>2012-02-16T15:57:59Z</time>
      </trkpt>
      <trkpt lat="47.06247" lon="5.51889">
        <ele>240.947632</ele>
        <time>2012-02-16T15:58:03Z</time>
      </trkpt>
      <trkpt lat="47.06243" lon="5.51865">
        <ele>241.428223</ele>
        <time>2012-02-16T15:58:13Z</time>
      </trkpt>
      <trkpt lat="47.0625" lon="5.51836">
        <ele>240.467041</ele>
        <time>2012-02-16T15:58:27Z</time>
      </trkpt>
      <trkpt lat="47.0625" lon="5.51833">
        <ele>239.986206</ele>
        <time>2012-02-16T15:58:28Z</time>
      </trkpt>
      <trkpt lat="47.06251" lon="5.51816">
        <ele>239.505493</ele>
        <time>2012-02-16T15:58:36Z</time>
      </trkpt>
      <trkpt lat="47.06247" lon="5.51807">
        <ele>239.505493</ele>
        <time>2012-02-16T15:58:40Z</time>
      </trkpt>
      <trkpt lat="47.0624" lon="5.518">
        <ele>239.505493</ele>
        <time>2012-02-16T15:58:48Z</time>
      </trkpt>
      <trkpt lat="47.06232" lon="5.51796">
        <ele>239.505493</ele>
        <time>2012-02-16T15:58:54Z</time>
      </trkpt>
      <trkpt lat="47.06207" lon="5.51785">
        <ele>239.505493</ele>
        <time>2012-02-16T15:59:13Z</time>
      </trkpt>
      <trkpt lat="47.06193" lon="5.5176">
        <ele>239.024902</ele>
        <time>2012-02-16T15:59:31Z</time>
      </trkpt>
      <trkpt lat="47.06195" lon="5.51741">
        <ele>238.063599</ele>
        <time>2012-02-16T15:59:41Z</time>
      </trkpt>
      <trkpt lat="47.06193" lon="5.51718">
        <ele>237.102295</ele>
        <time>2012-02-16T15:59:56Z</time>
      </trkpt>
      <trkpt lat="47.06195" lon="5.51711">
        <ele>237.102295</ele>
        <time>2012-02-16T16:00:01Z</time>
      </trkpt>
      <trkpt lat="47.06215" lon="5.51699">
        <ele>238.063599</ele>
        <time>2012-02-16T16:00:16Z</time>
      </trkpt>
      <trkpt lat="47.06226" lon="5.51693">
        <ele>239.505493</ele>
        <time>2012-02-16T16:00:23Z</time>
      </trkpt>
      <trkpt lat="47.06248" lon="5.51682">
        <ele>241.428223</ele>
        <time>2012-02-16T16:00:42Z</time>
      </trkpt>
      <trkpt lat="47.0626" lon="5.5167">
        <ele>242.389648</ele>
        <time>2012-02-16T16:00:57Z</time>
      </trkpt>
      <trkpt lat="47.06262" lon="5.51669">
        <ele>242.870239</ele>
        <time>2012-02-16T16:00:59Z</time>
      </trkpt>
      <trkpt lat="47.06273" lon="5.51655">
        <ele>244.312256</ele>
        <time>2012-02-16T16:01:12Z</time>
      </trkpt>
      <trkpt lat="47.06298" lon="5.5164">
        <ele>245.75415</ele>
        <time>2012-02-16T16:01:36Z</time>
      </trkpt>
      <trkpt lat="47.06318" lon="5.51622">
        <ele>247.196045</ele>
        <time>2012-02-16T16:01:54Z</time>
      </trkpt>
      <trkpt lat="47.06346" lon="5.516">
        <ele>248.638184</ele>
        <time>2012-02-16T16:02:17Z</time>
      </trkpt>
      <trkpt lat="47.0637" lon="5.51583">
        <ele>249.118774</ele>
        <time>2012-02-16T16:02:33Z</time>
      </trkpt>
      <trkpt lat="47.06381" lon="5.51573">
        <ele>249.599487</ele>
        <time>2012-02-16T16:02:48Z</time>
      </trkpt>
      <trkpt lat="47.06394" lon="5.51567">
        <ele>249.599487</ele>
        <time>2012-02-16T16:02:57Z</time>
      </trkpt>
      <trkpt lat="47.06418" lon="5.51552">
        <ele>250.0802</ele>
        <time>2012-02-16T16:03:14Z</time>
      </trkpt>
      <trkpt lat="47.06419" lon="5.51551">
        <ele>250.0802</ele>
        <time>2012-02-16T16:03:16Z</time>
      </trkpt>
      <trkpt lat="47.06434" lon="5.51538">
        <ele>250.560791</ele>
        <time>2012-02-16T16:03:36Z</time>
      </trkpt>
      <trkpt lat="47.0646" lon="5.5152">
        <ele>250.0802</ele>
        <time>2012-02-16T16:03:56Z</time>
      </trkpt>
      <trkpt lat="47.06482" lon="5.51501">
        <ele>249.599487</ele>
        <time>2012-02-16T16:04:20Z</time>
      </trkpt>
      <trkpt lat="47.0648" lon="5.51478">
        <ele>250.0802</ele>
        <time>2012-02-16T16:04:40Z</time>
      </trkpt>
      <trkpt lat="47.06471" lon="5.51464">
        <ele>249.599487</ele>
        <time>2012-02-16T16:05:03Z</time>
      </trkpt>
      <trkpt lat="47.06469" lon="5.51437">
        <ele>250.0802</ele>
        <time>2012-02-16T16:05:23Z</time>
      </trkpt>
      <trkpt lat="47.06469" lon="5.51422">
        <ele>249.118774</ele>
        <time>2012-02-16T16:05:36Z</time>
      </trkpt>
      <trkpt lat="47.06459" lon="5.51399">
        <ele>249.118774</ele>
        <time>2012-02-16T16:05:53Z</time>
      </trkpt>
      <trkpt lat="47.06456" lon="5.51389">
        <ele>249.118774</ele>
        <time>2012-02-16T16:05:58Z</time>
      </trkpt>
      <trkpt lat="47.0645" lon="5.51372">
        <ele>250.560791</ele>
        <time>2012-02-16T16:06:11Z</time>
      </trkpt>
      <trkpt lat="47.06449" lon="5.51351">
        <ele>251.522095</ele>
        <time>2012-02-16T16:06:27Z</time>
      </trkpt>
      <trkpt lat="47.06441" lon="5.51319">
        <ele>252.483398</ele>
        <time>2012-02-16T16:06:45Z</time>
      </trkpt>
      <trkpt lat="47.06436" lon="5.51301">
        <ele>253.444702</ele>
        <time>2012-02-16T16:06:57Z</time>
      </trkpt>
      <trkpt lat="47.06434" lon="5.51274">
        <ele>254.886597</ele>
        <time>2012-02-16T16:07:09Z</time>
      </trkpt>
      <trkpt lat="47.06428" lon="5.51242">
        <ele>256.328735</ele>
        <time>2012-02-16T16:07:27Z</time>
      </trkpt>
      <trkpt lat="47.06421" lon="5.51222">
        <ele>257.290039</ele>
        <time>2012-02-16T16:07:41Z</time>
      </trkpt>
      <trkpt lat="47.06418" lon="5.51193">
        <ele>258.731934</ele>
        <time>2012-02-16T16:07:58Z</time>
      </trkpt>
      <trkpt lat="47.06412" lon="5.5116">
        <ele>259.212646</ele>
        <time>2012-02-16T16:08:19Z</time>
      </trkpt>
      <trkpt lat="47.06404" lon="5.51142">
        <ele>259.693359</ele>
        <time>2012-02-16T16:08:34Z</time>
      </trkpt>
      <trkpt lat="47.064" lon="5.51113">
        <ele>260.654541</ele>
        <time>2012-02-16T16:08:54Z</time>
      </trkpt>
      <trkpt lat="47.064" lon="5.51108">
        <ele>261.135254</ele>
        <time>2012-02-16T16:08:56Z</time>
      </trkpt>
      <trkpt lat="47.06395" lon="5.51095">
        <ele>261.615967</ele>
        <time>2012-02-16T16:09:07Z</time>
      </trkpt>
      <trkpt lat="47.06391" lon="5.51083">
        <ele>262.577148</ele>
        <time>2012-02-16T16:09:20Z</time>
      </trkpt>
      <trkpt lat="47.06387" lon="5.51072">
        <ele>262.577148</ele>
        <time>2012-02-16T16:09:30Z</time>
      </trkpt>
      <trkpt lat="47.06386" lon="5.51068">
        <ele>262.577148</ele>
        <time>2012-02-16T16:09:32Z</time>
      </trkpt>
      <trkpt lat="47.06386" lon="5.51062">
        <ele>262.577148</ele>
        <time>2012-02-16T16:09:37Z</time>
      </trkpt>
      <trkpt lat="47.06379" lon="5.51043">
        <ele>264.019287</ele>
        <time>2012-02-16T16:09:56Z</time>
      </trkpt>
      <trkpt lat="47.06373" lon="5.51008">
        <ele>265.941895</ele>
        <time>2012-02-16T16:10:23Z</time>
      </trkpt>
      <trkpt lat="47.06366" lon="5.50982">
        <ele>266.422485</ele>
        <time>2012-02-16T16:10:42Z</time>
      </trkpt>
      <trkpt lat="47.06361" lon="5.50966">
        <ele>267.383911</ele>
        <time>2012-02-16T16:10:57Z</time>
      </trkpt>
      <trkpt lat="47.06358" lon="5.50937">
        <ele>267.864502</ele>
        <time>2012-02-16T16:11:12Z</time>
      </trkpt>
      <trkpt lat="47.06347" lon="5.50902">
        <ele>268.345093</ele>
        <time>2012-02-16T16:11:30Z</time>
      </trkpt>
      <trkpt lat="47.06343" lon="5.50872">
        <ele>269.306519</ele>
        <time>2012-02-16T16:11:45Z</time>
      </trkpt>
      <trkpt lat="47.06343" lon="5.50863">
        <ele>269.306519</ele>
        <time>2012-02-16T16:12:04Z</time>
      </trkpt>
      <trkpt lat="47.0634" lon="5.50856">
        <ele>269.787109</ele>
        <time>2012-02-16T16:12:43Z</time>
      </trkpt>
      <trkpt lat="47.06337" lon="5.50852">
        <ele>269.787109</ele>
        <time>2012-02-16T16:12:48Z</time>
      </trkpt>
      <trkpt lat="47.06338" lon="5.50825">
        <ele>269.787109</ele>
        <time>2012-02-16T16:13:07Z</time>
      </trkpt>
      <trkpt lat="47.06328" lon="5.508">
        <ele>270.2677</ele>
        <time>2012-02-16T16:13:28Z</time>
      </trkpt>
      <trkpt lat="47.0632" lon="5.50769">
        <ele>269.787109</ele>
        <time>2012-02-16T16:13:48Z</time>
      </trkpt>
      <trkpt lat="47.06317" lon="5.50764">
        <ele>269.787109</ele>
        <time>2012-02-16T16:13:52Z</time>
      </trkpt>
      <trkpt lat="47.06314" lon="5.50735">
        <ele>269.787109</ele>
        <time>2012-02-16T16:14:11Z</time>
      </trkpt>
      <trkpt lat="47.06306" lon="5.50701">
        <ele>268.345093</ele>
        <time>2012-02-16T16:14:34Z</time>
      </trkpt>
      <trkpt lat="47.06301" lon="5.50679">
        <ele>267.383911</ele>
        <time>2012-02-16T16:14:49Z</time>
      </trkpt>
      <trkpt lat="47.06297" lon="5.50665">
        <ele>265.941895</ele>
        <time>2012-02-16T16:15:02Z</time>
      </trkpt>
      <trkpt lat="47.0629" lon="5.50632">
        <ele>264.980591</ele>
        <time>2012-02-16T16:15:22Z</time>
      </trkpt>
      <trkpt lat="47.06282" lon="5.50603">
        <ele>264.019287</ele>
        <time>2012-02-16T16:15:40Z</time>
      </trkpt>
      <trkpt lat="47.06276" lon="5.5058">
        <ele>263.538574</ele>
        <time>2012-02-16T16:15:59Z</time>
      </trkpt>
      <trkpt lat="47.0627" lon="5.50544">
        <ele>262.096558</ele>
        <time>2012-02-16T16:16:22Z</time>
      </trkpt>
      <trkpt lat="47.06261" lon="5.50513">
        <ele>261.615967</ele>
        <time>2012-02-16T16:16:41Z</time>
      </trkpt>
      <trkpt lat="47.06261" lon="5.50501">
        <ele>261.615967</ele>
        <time>2012-02-16T16:16:49Z</time>
      </trkpt>
      <trkpt lat="47.0626" lon="5.50494">
        <ele>261.615967</ele>
        <time>2012-02-16T16:16:53Z</time>
      </trkpt>
      <trkpt lat="47.06256" lon="5.50472">
        <ele>261.135254</ele>
        <time>2012-02-16T16:17:05Z</time>
      </trkpt>
      <trkpt lat="47.06249" lon="5.50447">
        <ele>260.17395</ele>
        <time>2012-02-16T16:17:20Z</time>
      </trkpt>
      <trkpt lat="47.06245" lon="5.50422">
        <ele>259.693359</ele>
        <time>2012-02-16T16:17:37Z</time>
      </trkpt>
      <trkpt lat="47.06238" lon="5.50397">
        <ele>258.251343</ele>
        <time>2012-02-16T16:17:54Z</time>
      </trkpt>
      <trkpt lat="47.06234" lon="5.50375">
        <ele>257.290039</ele>
        <time>2012-02-16T16:18:10Z</time>
      </trkpt>
      <trkpt lat="47.06228" lon="5.50353">
        <ele>256.328735</ele>
        <time>2012-02-16T16:18:25Z</time>
      </trkpt>
      <trkpt lat="47.06226" lon="5.50342">
        <ele>255.848022</ele>
        <time>2012-02-16T16:18:35Z</time>
      </trkpt>
      <trkpt lat="47.06222" lon="5.50317">
        <ele>254.406006</ele>
        <time>2012-02-16T16:18:51Z</time>
      </trkpt>
      <trkpt lat="47.06214" lon="5.50297">
        <ele>252.963989</ele>
        <time>2012-02-16T16:19:09Z</time>
      </trkpt>
      <trkpt lat="47.06212" lon="5.50272">
        <ele>252.002808</ele>
        <time>2012-02-16T16:19:26Z</time>
      </trkpt>
      <trkpt lat="47.06207" lon="5.50251">
        <ele>251.522095</ele>
        <time>2012-02-16T16:19:41Z</time>
      </trkpt>
      <trkpt lat="47.0621" lon="5.50237">
        <ele>251.522095</ele>
        <time>2012-02-16T16:20:06Z</time>
      </trkpt>
      <trkpt lat="47.06224" lon="5.50232">
        <ele>251.041382</ele>
        <time>2012-02-16T16:20:21Z</time>
      </trkpt>
      <trkpt lat="47.06226" lon="5.50231">
        <ele>250.560791</ele>
        <time>2012-02-16T16:20:23Z</time>
      </trkpt>
      <trkpt lat="47.06243" lon="5.5022">
        <ele>251.522095</ele>
        <time>2012-02-16T16:20:40Z</time>
      </trkpt>
      <trkpt lat="47.06266" lon="5.50207">
        <ele>251.041382</ele>
        <time>2012-02-16T16:20:58Z</time>
      </trkpt>
      <trkpt lat="47.06276" lon="5.50198">
        <ele>250.560791</ele>
        <time>2012-02-16T16:21:06Z</time>
      </trkpt>
      <trkpt lat="47.0629" lon="5.50191">
        <ele>250.0802</ele>
        <time>2012-02-16T16:21:20Z</time>
      </trkpt>
      <trkpt lat="47.06304" lon="5.50174">
        <ele>250.0802</ele>
        <time>2012-02-16T16:21:36Z</time>
      </trkpt>
      <trkpt lat="47.06322" lon="5.50167">
        <ele>250.0802</ele>
        <time>2012-02-16T16:21:52Z</time>
      </trkpt>
      <trkpt lat="47.06325" lon="5.50168">
        <ele>249.599487</ele>
        <time>2012-02-16T16:21:54Z</time>
      </trkpt>
      <trkpt lat="47.06339" lon="5.50161">
        <ele>249.599487</ele>
        <time>2012-02-16T16:22:08Z</time>
      </trkpt>
      <trkpt lat="47.06355" lon="5.50149">
        <ele>249.599487</ele>
        <time>2012-02-16T16:22:25Z</time>
      </trkpt>
      <trkpt lat="47.06368" lon="5.5014">
        <ele>249.599487</ele>
        <time>2012-02-16T16:22:38Z</time>
      </trkpt>
      <trkpt lat="47.06388" lon="5.50129">
        <ele>249.599487</ele>
        <time>2012-02-16T16:22:54Z</time>
      </trkpt>
      <trkpt lat="47.06394" lon="5.50124">
        <ele>250.0802</ele>
        <time>2012-02-16T16:23:00Z</time>
      </trkpt>
      <trkpt lat="47.06407" lon="5.50112">
        <ele>249.599487</ele>
        <time>2012-02-16T16:23:14Z</time>
      </trkpt>
      <trkpt lat="47.06413" lon="5.50109">
        <ele>249.599487</ele>
        <time>2012-02-16T16:23:18Z</time>
      </trkpt>
      <trkpt lat="47.06429" lon="5.50101">
        <ele>249.599487</ele>
        <time>2012-02-16T16:23:34Z</time>
      </trkpt>
      <trkpt lat="47.06443" lon="5.50097">
        <ele>248.638184</ele>
        <time>2012-02-16T16:23:47Z</time>
      </trkpt>
      <trkpt lat="47.06453" lon="5.50112">
        <ele>249.118774</ele>
        <time>2012-02-16T16:24:04Z</time>
      </trkpt>
      <trkpt lat="47.06463" lon="5.50128">
        <ele>249.599487</ele>
        <time>2012-02-16T16:24:16Z</time>
      </trkpt>
      <trkpt lat="47.06464" lon="5.5013">
        <ele>249.599487</ele>
        <time>2012-02-16T16:24:17Z</time>
      </trkpt>
      <trkpt lat="47.06472" lon="5.50165">
        <ele>250.560791</ele>
        <time>2012-02-16T16:24:38Z</time>
      </trkpt>
      <trkpt lat="47.06478" lon="5.50196">
        <ele>251.522095</ele>
        <time>2012-02-16T16:24:57Z</time>
      </trkpt>
      <trkpt lat="47.06485" lon="5.50221">
        <ele>252.483398</ele>
        <time>2012-02-16T16:25:14Z</time>
      </trkpt>
      <trkpt lat="47.06489" lon="5.50246">
        <ele>253.444702</ele>
        <time>2012-02-16T16:25:31Z</time>
      </trkpt>
      <trkpt lat="47.06497" lon="5.50273">
        <ele>253.925415</ele>
        <time>2012-02-16T16:25:50Z</time>
      </trkpt>
      <trkpt lat="47.06503" lon="5.50292">
        <ele>254.406006</ele>
        <time>2012-02-16T16:26:07Z</time>
      </trkpt>
      <trkpt lat="47.06513" lon="5.50312">
        <ele>253.925415</ele>
        <time>2012-02-16T16:26:21Z</time>
      </trkpt>
      <trkpt lat="47.06526" lon="5.5032">
        <ele>254.406006</ele>
        <time>2012-02-16T16:26:36Z</time>
      </trkpt>
      <trkpt lat="47.0654" lon="5.50332">
        <ele>254.886597</ele>
        <time>2012-02-16T16:26:53Z</time>
      </trkpt>
      <trkpt lat="47.06553" lon="5.5034">
        <ele>254.886597</ele>
        <time>2012-02-16T16:27:07Z</time>
      </trkpt>
      <trkpt lat="47.06561" lon="5.50358">
        <ele>254.886597</ele>
        <time>2012-02-16T16:27:21Z</time>
      </trkpt>
      <trkpt lat="47.06561" lon="5.50365">
        <ele>255.848022</ele>
        <time>2012-02-16T16:27:25Z</time>
      </trkpt>
      <trkpt lat="47.0656" lon="5.50387">
        <ele>256.328735</ele>
        <time>2012-02-16T16:27:36Z</time>
      </trkpt>
      <trkpt lat="47.06566" lon="5.50411">
        <ele>256.809326</ele>
        <time>2012-02-16T16:27:51Z</time>
      </trkpt>
      <trkpt lat="47.06574" lon="5.50441">
        <ele>256.809326</ele>
        <time>2012-02-16T16:28:10Z</time>
      </trkpt>
      <trkpt lat="47.06588" lon="5.50459">
        <ele>257.770752</ele>
        <time>2012-02-16T16:28:29Z</time>
      </trkpt>
      <trkpt lat="47.06602" lon="5.50449">
        <ele>257.290039</ele>
        <time>2012-02-16T16:28:46Z</time>
      </trkpt>
      <trkpt lat="47.06604" lon="5.50449">
        <ele>256.328735</ele>
        <time>2012-02-16T16:28:48Z</time>
      </trkpt>
      <trkpt lat="47.06623" lon="5.5044">
        <ele>255.848022</ele>
        <time>2012-02-16T16:29:05Z</time>
      </trkpt>
      <trkpt lat="47.06634" lon="5.50432">
        <ele>254.886597</ele>
        <time>2012-02-16T16:29:20Z</time>
      </trkpt>
      <trkpt lat="47.06647" lon="5.50428">
        <ele>253.444702</ele>
        <time>2012-02-16T16:29:36Z</time>
      </trkpt>
      <trkpt lat="47.06663" lon="5.50409">
        <ele>253.925415</ele>
        <time>2012-02-16T16:29:57Z</time>
      </trkpt>
      <trkpt lat="47.06673" lon="5.5041">
        <ele>254.886597</ele>
        <time>2012-02-16T16:30:06Z</time>
      </trkpt>
      <trkpt lat="47.06691" lon="5.50399">
        <ele>255.848022</ele>
        <time>2012-02-16T16:30:23Z</time>
      </trkpt>
      <trkpt lat="47.067" lon="5.50395">
        <ele>255.848022</ele>
        <time>2012-02-16T16:30:31Z</time>
      </trkpt>
      <trkpt lat="47.06706" lon="5.50391">
        <ele>255.848022</ele>
        <time>2012-02-16T16:30:39Z</time>
      </trkpt>
      <trkpt lat="47.06715" lon="5.50386">
        <ele>255.848022</ele>
        <time>2012-02-16T16:30:47Z</time>
      </trkpt>
      <trkpt lat="47.06725" lon="5.50375">
        <ele>256.328735</ele>
        <time>2012-02-16T16:30:53Z</time>
      </trkpt>
      <trkpt lat="47.06735" lon="5.50366">
        <ele>256.328735</ele>
        <time>2012-02-16T16:31:05Z</time>
      </trkpt>
      <trkpt lat="47.06752" lon="5.5036">
        <ele>256.809326</ele>
        <time>2012-02-16T16:31:20Z</time>
      </trkpt>
      <trkpt lat="47.06758" lon="5.50348">
        <ele>256.809326</ele>
        <time>2012-02-16T16:31:33Z</time>
      </trkpt>
      <trkpt lat="47.06763" lon="5.50321">
        <ele>256.328735</ele>
        <time>2012-02-16T16:31:51Z</time>
      </trkpt>
      <trkpt lat="47.06764" lon="5.50314">
        <ele>256.809326</ele>
        <time>2012-02-16T16:31:56Z</time>
      </trkpt>
      <trkpt lat="47.06766" lon="5.50301">
        <ele>256.328735</ele>
        <time>2012-02-16T16:32:04Z</time>
      </trkpt>
      <trkpt lat="47.06769" lon="5.50289">
        <ele>255.848022</ele>
        <time>2012-02-16T16:32:10Z</time>
      </trkpt>
      <trkpt lat="47.0677" lon="5.50277">
        <ele>255.36731</ele>
        <time>2012-02-16T16:32:26Z</time>
      </trkpt>
      <trkpt lat="47.06772" lon="5.50274">
        <ele>255.36731</ele>
        <time>2012-02-16T16:32:43Z</time>
      </trkpt>
      <trkpt lat="47.06783" lon="5.50254">
        <ele>254.406006</ele>
        <time>2012-02-16T16:33:03Z</time>
      </trkpt>
      <trkpt lat="47.06788" lon="5.50239">
        <ele>253.925415</ele>
        <time>2012-02-16T16:33:16Z</time>
      </trkpt>
      <trkpt lat="47.06791" lon="5.50209">
        <ele>252.483398</ele>
        <time>2012-02-16T16:33:36Z</time>
      </trkpt>
      <trkpt lat="47.06793" lon="5.50201">
        <ele>252.483398</ele>
        <time>2012-02-16T16:34:16Z</time>
      </trkpt>
      <trkpt lat="47.06806" lon="5.50181">
        <ele>251.522095</ele>
        <time>2012-02-16T16:34:38Z</time>
      </trkpt>
      <trkpt lat="47.06809" lon="5.50162">
        <ele>251.041382</ele>
        <time>2012-02-16T16:34:54Z</time>
      </trkpt>
      <trkpt lat="47.06817" lon="5.50134">
        <ele>249.599487</ele>
        <time>2012-02-16T16:35:18Z</time>
      </trkpt>
      <trkpt lat="47.06828" lon="5.50103">
        <ele>248.638184</ele>
        <time>2012-02-16T16:35:40Z</time>
      </trkpt>
      <trkpt lat="47.06844" lon="5.50077">
        <ele>248.157593</ele>
        <time>2012-02-16T16:35:58Z</time>
      </trkpt>
      <trkpt lat="47.06848" lon="5.5005">
        <ele>246.234863</ele>
        <time>2012-02-16T16:36:22Z</time>
      </trkpt>
      <trkpt lat="47.06861" lon="5.50031">
        <ele>246.715454</ele>
        <time>2012-02-16T16:36:37Z</time>
      </trkpt>
      <trkpt lat="47.06875" lon="5.50013">
        <ele>246.234863</ele>
        <time>2012-02-16T16:36:54Z</time>
      </trkpt>
      <trkpt lat="47.0689" lon="5.50003">
        <ele>246.234863</ele>
        <time>2012-02-16T16:37:14Z</time>
      </trkpt>
      <trkpt lat="47.06892" lon="5.49998">
        <ele>245.273438</ele>
        <time>2012-02-16T16:37:56Z</time>
      </trkpt>
      <trkpt lat="47.06896" lon="5.49994">
        <ele>245.273438</ele>
        <time>2012-02-16T16:38:24Z</time>
      </trkpt>
      <trkpt lat="47.06896" lon="5.49993">
        <ele>244.792847</ele>
        <time>2012-02-16T16:38:50Z</time>
      </trkpt>
      <trkpt lat="47.06895" lon="5.49994">
        <ele>242.870239</ele>
        <time>2012-02-16T16:40:49Z</time>
      </trkpt>
      <trkpt lat="47.06908" lon="5.49972">
        <ele>242.389648</ele>
        <time>2012-02-16T16:41:08Z</time>
      </trkpt>
      <trkpt lat="47.06916" lon="5.49949">
        <ele>241.908936</ele>
        <time>2012-02-16T16:41:26Z</time>
      </trkpt>
      <trkpt lat="47.06923" lon="5.49927">
        <ele>241.428223</ele>
        <time>2012-02-16T16:41:41Z</time>
      </trkpt>
      <trkpt lat="47.06936" lon="5.49897">
        <ele>240.467041</ele>
        <time>2012-02-16T16:42:00Z</time>
      </trkpt>
      <trkpt lat="47.06947" lon="5.49854">
        <ele>239.986206</ele>
        <time>2012-02-16T16:42:24Z</time>
      </trkpt>
      <trkpt lat="47.06961" lon="5.49802">
        <ele>239.024902</ele>
        <time>2012-02-16T16:42:52Z</time>
      </trkpt>
      <trkpt lat="47.06972" lon="5.4976">
        <ele>238.544312</ele>
        <time>2012-02-16T16:43:17Z</time>
      </trkpt>
      <trkpt lat="47.06985" lon="5.49702">
        <ele>238.063599</ele>
        <time>2012-02-16T16:43:48Z</time>
      </trkpt>
      <trkpt lat="47.06994" lon="5.49672">
        <ele>237.102295</ele>
        <time>2012-02-16T16:44:07Z</time>
      </trkpt>
      <trkpt lat="47.07006" lon="5.49654">
        <ele>237.582886</ele>
        <time>2012-02-16T16:44:24Z</time>
      </trkpt>
      <trkpt lat="47.0702" lon="5.49664">
        <ele>237.102295</ele>
        <time>2012-02-16T16:44:41Z</time>
      </trkpt>
      <trkpt lat="47.07021" lon="5.4966">
        <ele>237.102295</ele>
        <time>2012-02-16T16:44:54Z</time>
      </trkpt>
      <trkpt lat="47.07023" lon="5.49652">
        <ele>237.102295</ele>
        <time>2012-02-16T16:44:59Z</time>
      </trkpt>
      <trkpt lat="47.07024" lon="5.49647">
        <ele>236.621704</ele>
        <time>2012-02-16T16:45:02Z</time>
      </trkpt>
      <trkpt lat="47.07024" lon="5.49644">
        <ele>237.102295</ele>
        <time>2012-02-16T16:45:06Z</time>
      </trkpt>
      <trkpt lat="47.07036" lon="5.49616">
        <ele>236.140991</ele>
        <time>2012-02-16T16:45:29Z</time>
      </trkpt>
      <trkpt lat="47.07049" lon="5.49585">
        <ele>235.660278</ele>
        <time>2012-02-16T16:45:50Z</time>
      </trkpt>
      <trkpt lat="47.07063" lon="5.49545">
        <ele>235.660278</ele>
        <time>2012-02-16T16:46:15Z</time>
      </trkpt>
      <trkpt lat="47.07075" lon="5.49511">
        <ele>235.179688</ele>
        <time>2012-02-16T16:46:35Z</time>
      </trkpt>
      <trkpt lat="47.07087" lon="5.49471">
        <ele>234.699097</ele>
        <time>2012-02-16T16:46:58Z</time>
      </trkpt>
      <trkpt lat="47.07099" lon="5.49439">
        <ele>234.699097</ele>
        <time>2012-02-16T16:47:19Z</time>
      </trkpt>
      <trkpt lat="47.07104" lon="5.49424">
        <ele>234.218384</ele>
        <time>2012-02-16T16:47:29Z</time>
      </trkpt>
      <trkpt lat="47.07108" lon="5.49395">
        <ele>233.737671</ele>
        <time>2012-02-16T16:47:43Z</time>
      </trkpt>
      <trkpt lat="47.07122" lon="5.49363">
        <ele>233.25708</ele>
        <time>2012-02-16T16:48:04Z</time>
      </trkpt>
      <trkpt lat="47.07138" lon="5.49327">
        <ele>232.295776</ele>
        <time>2012-02-16T16:48:28Z</time>
      </trkpt>
      <trkpt lat="47.07154" lon="5.49288">
        <ele>231.334351</ele>
        <time>2012-02-16T16:48:53Z</time>
      </trkpt>
      <trkpt lat="47.07166" lon="5.4925">
        <ele>230.85376</ele>
        <time>2012-02-16T16:49:17Z</time>
      </trkpt>
      <trkpt lat="47.07175" lon="5.49213">
        <ele>229.892334</ele>
        <time>2012-02-16T16:49:39Z</time>
      </trkpt>
      <trkpt lat="47.07189" lon="5.49177">
        <ele>229.411743</ele>
        <time>2012-02-16T16:50:03Z</time>
      </trkpt>
      <trkpt lat="47.07211" lon="5.49165">
        <ele>228.931152</ele>
        <time>2012-02-16T16:50:24Z</time>
      </trkpt>
      <trkpt lat="47.07236" lon="5.4916">
        <ele>228.450439</ele>
        <time>2012-02-16T16:50:43Z</time>
      </trkpt>
      <trkpt lat="47.07254" lon="5.49135">
        <ele>227.489136</ele>
        <time>2012-02-16T16:51:03Z</time>
      </trkpt>
      <trkpt lat="47.0727" lon="5.49108">
        <ele>226.527832</ele>
        <time>2012-02-16T16:51:24Z</time>
      </trkpt>
      <trkpt lat="47.07282" lon="5.49091">
        <ele>225.566528</ele>
        <time>2012-02-16T16:51:36Z</time>
      </trkpt>
      <trkpt lat="47.073" lon="5.49066">
        <ele>222.682495</ele>
        <time>2012-02-16T16:51:55Z</time>
      </trkpt>
      <trkpt lat="47.07314" lon="5.49057">
        <ele>221.240601</ele>
        <time>2012-02-16T16:52:05Z</time>
      </trkpt>
      <trkpt lat="47.07332" lon="5.49061">
        <ele>219.798584</ele>
        <time>2012-02-16T16:52:19Z</time>
      </trkpt>
      <trkpt lat="47.07352" lon="5.49095">
        <ele>219.798584</ele>
        <time>2012-02-16T16:52:42Z</time>
      </trkpt>
      <trkpt lat="47.07357" lon="5.49106">
        <ele>219.798584</ele>
        <time>2012-02-16T16:52:49Z</time>
      </trkpt>
      <trkpt lat="47.07361" lon="5.49117">
        <ele>218.83728</ele>
        <time>2012-02-16T16:52:57Z</time>
      </trkpt>
      <trkpt lat="47.07364" lon="5.49126">
        <ele>217.875977</ele>
        <time>2012-02-16T16:53:03Z</time>
      </trkpt>
      <trkpt lat="47.07367" lon="5.49132">
        <ele>217.395386</ele>
        <time>2012-02-16T16:53:07Z</time>
      </trkpt>
      <trkpt lat="47.07368" lon="5.49138">
        <ele>217.395386</ele>
        <time>2012-02-16T16:53:11Z</time>
      </trkpt>
      <trkpt lat="47.07371" lon="5.49144">
        <ele>216.43396</ele>
        <time>2012-02-16T16:53:16Z</time>
      </trkpt>
      <trkpt lat="47.07381" lon="5.49161">
        <ele>215.953247</ele>
        <time>2012-02-16T16:53:29Z</time>
      </trkpt>
      <trkpt lat="47.07398" lon="5.49191">
        <ele>215.953247</ele>
        <time>2012-02-16T16:53:52Z</time>
      </trkpt>
      <trkpt lat="47.07418" lon="5.49212">
        <ele>215.953247</ele>
        <time>2012-02-16T16:54:13Z</time>
      </trkpt>
      <trkpt lat="47.07439" lon="5.49229">
        <ele>215.472656</ele>
        <time>2012-02-16T16:54:33Z</time>
      </trkpt>
      <trkpt lat="47.07457" lon="5.49244">
        <ele>215.953247</ele>
        <time>2012-02-16T16:54:51Z</time>
      </trkpt>
      <trkpt lat="47.07469" lon="5.4926">
        <ele>215.953247</ele>
        <time>2012-02-16T16:55:05Z</time>
      </trkpt>
      <trkpt lat="47.07484" lon="5.49275">
        <ele>214.51123</ele>
        <time>2012-02-16T16:55:26Z</time>
      </trkpt>
      <trkpt lat="47.07482" lon="5.49283">
        <ele>216.43396</ele>
        <time>2012-02-16T16:55:42Z</time>
      </trkpt>
      <trkpt lat="47.07501" lon="5.49291">
        <ele>216.43396</ele>
        <time>2012-02-16T16:55:59Z</time>
      </trkpt>
      <trkpt lat="47.07505" lon="5.49292">
        <ele>216.43396</ele>
        <time>2012-02-16T16:56:04Z</time>
      </trkpt>
      <trkpt lat="47.07523" lon="5.49258">
        <ele>215.953247</ele>
        <time>2012-02-16T16:56:24Z</time>
      </trkpt>
      <trkpt lat="47.07536" lon="5.49226">
        <ele>214.991943</ele>
        <time>2012-02-16T16:56:43Z</time>
      </trkpt>
      <trkpt lat="47.07539" lon="5.49219">
        <ele>214.991943</ele>
        <time>2012-02-16T16:56:48Z</time>
      </trkpt>
      <trkpt lat="47.07544" lon="5.49214">
        <ele>214.991943</ele>
        <time>2012-02-16T16:56:53Z</time>
      </trkpt>
      <trkpt lat="47.07546" lon="5.49208">
        <ele>215.472656</ele>
        <time>2012-02-16T16:56:57Z</time>
      </trkpt>
      <trkpt lat="47.07547" lon="5.49204">
        <ele>214.51123</ele>
        <time>2012-02-16T16:56:59Z</time>
      </trkpt>
      <trkpt lat="47.07552" lon="5.49194">
        <ele>214.991943</ele>
        <time>2012-02-16T16:57:07Z</time>
      </trkpt>
      <trkpt lat="47.07556" lon="5.49188">
        <ele>214.51123</ele>
        <time>2012-02-16T16:57:11Z</time>
      </trkpt>
      <trkpt lat="47.07558" lon="5.49184">
        <ele>214.51123</ele>
        <time>2012-02-16T16:57:14Z</time>
      </trkpt>
      <trkpt lat="47.07559" lon="5.49167">
        <ele>213.550049</ele>
        <time>2012-02-16T16:57:26Z</time>
      </trkpt>
      <trkpt lat="47.07558" lon="5.49161">
        <ele>212.108032</ele>
        <time>2012-02-16T16:57:29Z</time>
      </trkpt>
      <trkpt lat="47.07558" lon="5.49154">
        <ele>212.588623</ele>
        <time>2012-02-16T16:57:35Z</time>
      </trkpt>
      <trkpt lat="47.07555" lon="5.49138">
        <ele>212.108032</ele>
        <time>2012-02-16T16:57:43Z</time>
      </trkpt>
      <trkpt lat="47.07553" lon="5.49122">
        <ele>212.108032</ele>
        <time>2012-02-16T16:57:51Z</time>
      </trkpt>
      <trkpt lat="47.07551" lon="5.49116">
        <ele>211.627441</ele>
        <time>2012-02-16T16:57:55Z</time>
      </trkpt>
      <trkpt lat="47.07551" lon="5.49111">
        <ele>211.627441</ele>
        <time>2012-02-16T16:57:58Z</time>
      </trkpt>
      <trkpt lat="47.07551" lon="5.49106">
        <ele>211.627441</ele>
        <time>2012-02-16T16:58:01Z</time>
      </trkpt>
      <trkpt lat="47.07548" lon="5.49097">
        <ele>211.146729</ele>
        <time>2012-02-16T16:58:08Z</time>
      </trkpt>
      <trkpt lat="47.07535" lon="5.49082">
        <ele>211.627441</ele>
        <time>2012-02-16T16:58:21Z</time>
      </trkpt>
      <trkpt lat="47.07519" lon="5.49056">
        <ele>209.704834</ele>
        <time>2012-02-16T16:58:41Z</time>
      </trkpt>
      <trkpt lat="47.07516" lon="5.49056">
        <ele>209.704834</ele>
        <time>2012-02-16T16:58:45Z</time>
      </trkpt>
      <trkpt lat="47.07508" lon="5.49034">
        <ele>209.704834</ele>
        <time>2012-02-16T16:59:02Z</time>
      </trkpt>
      <trkpt lat="47.07497" lon="5.49013">
        <ele>209.704834</ele>
        <time>2012-02-16T16:59:23Z</time>
      </trkpt>
      <trkpt lat="47.07494" lon="5.49006">
        <ele>209.224121</ele>
        <time>2012-02-16T16:59:50Z</time>
      </trkpt>
    </trkseg>
  </trk>
</gpx>